<?xml version="1.0" encoding="UTF-8" standalone="no" ?>
<gpx xmlns="http://www.topografix.com/GPX/1/1" xmlns:xsi="http://www.w3.org/2001/XMLSchema-instance" xsi:schemaLocation="http://www.topografix.com/GPX/1/1 http://www.topografix.com/GPX/1/1/gpx.xsd" version="1.1" creator="VisuGPX - https://www.visugpx.com">
  <metadata>
    <name>Single de la Croix des Suifs</name>
    <desc><![CDATA[Petit single divertissant, en partant du parking de la Sierre, arrivant à la fontaine de Lans-en-Vercors.]]></desc>
  </metadata>
  <trk>
    <name><![CDATA[Croix des suifs]]></name>
    <trkseg>
      <trkpt lat="45.11159" lon="5.60618">
        <ele>1436</ele>
        <time>2011-06-26T14:34:57Z</time>
      </trkpt>
      <trkpt lat="45.11154" lon="5.60617">
        <ele>1434</ele>
        <time>2011-06-26T14:35:00Z</time>
      </trkpt>
      <trkpt lat="45.11145" lon="5.60616">
        <ele>1432</ele>
        <time>2011-06-26T14:35:02Z</time>
      </trkpt>
      <trkpt lat="45.11139" lon="5.60615">
        <ele>1431</ele>
        <time>2011-06-26T14:35:03Z</time>
      </trkpt>
      <trkpt lat="45.11134" lon="5.60615">
        <ele>1431</ele>
        <time>2011-06-26T14:35:04Z</time>
      </trkpt>
      <trkpt lat="45.11128" lon="5.60614">
        <ele>1431</ele>
        <time>2011-06-26T14:35:05Z</time>
      </trkpt>
      <trkpt lat="45.11122" lon="5.60615">
        <ele>1431</ele>
        <time>2011-06-26T14:35:06Z</time>
      </trkpt>
      <trkpt lat="45.11117" lon="5.60616">
        <ele>1429</ele>
        <time>2011-06-26T14:35:07Z</time>
      </trkpt>
      <trkpt lat="45.11109" lon="5.60616">
        <ele>1429</ele>
        <time>2011-06-26T14:35:08Z</time>
      </trkpt>
      <trkpt lat="45.11102" lon="5.60616">
        <ele>1429</ele>
        <time>2011-06-26T14:35:09Z</time>
      </trkpt>
      <trkpt lat="45.11094" lon="5.60615">
        <ele>1429</ele>
        <time>2011-06-26T14:35:10Z</time>
      </trkpt>
      <trkpt lat="45.11084" lon="5.60615">
        <ele>1428</ele>
        <time>2011-06-26T14:35:11Z</time>
      </trkpt>
      <trkpt lat="45.11078" lon="5.60614">
        <ele>1428</ele>
        <time>2011-06-26T14:35:12Z</time>
      </trkpt>
      <trkpt lat="45.11068" lon="5.60613">
        <ele>1428</ele>
        <time>2011-06-26T14:35:13Z</time>
      </trkpt>
      <trkpt lat="45.1106" lon="5.6061">
        <ele>1428</ele>
        <time>2011-06-26T14:35:14Z</time>
      </trkpt>
      <trkpt lat="45.11052" lon="5.60609">
        <ele>1428</ele>
        <time>2011-06-26T14:35:15Z</time>
      </trkpt>
      <trkpt lat="45.11043" lon="5.60608">
        <ele>1428</ele>
        <time>2011-06-26T14:35:16Z</time>
      </trkpt>
      <trkpt lat="45.11034" lon="5.60608">
        <ele>1428</ele>
        <time>2011-06-26T14:35:17Z</time>
      </trkpt>
      <trkpt lat="45.11024" lon="5.60608">
        <ele>1427</ele>
        <time>2011-06-26T14:35:18Z</time>
      </trkpt>
      <trkpt lat="45.11014" lon="5.60608">
        <ele>1427</ele>
        <time>2011-06-26T14:35:19Z</time>
      </trkpt>
      <trkpt lat="45.11004" lon="5.60609">
        <ele>1426</ele>
        <time>2011-06-26T14:35:20Z</time>
      </trkpt>
      <trkpt lat="45.10998" lon="5.60611">
        <ele>1425</ele>
        <time>2011-06-26T14:35:21Z</time>
      </trkpt>
      <trkpt lat="45.1099" lon="5.60613">
        <ele>1425</ele>
        <time>2011-06-26T14:35:22Z</time>
      </trkpt>
      <trkpt lat="45.10982" lon="5.60614">
        <ele>1424</ele>
        <time>2011-06-26T14:35:23Z</time>
      </trkpt>
      <trkpt lat="45.10974" lon="5.60617">
        <ele>1424</ele>
        <time>2011-06-26T14:35:24Z</time>
      </trkpt>
      <trkpt lat="45.10966" lon="5.60618">
        <ele>1424</ele>
        <time>2011-06-26T14:35:25Z</time>
      </trkpt>
      <trkpt lat="45.1096" lon="5.60618">
        <ele>1423</ele>
        <time>2011-06-26T14:35:26Z</time>
      </trkpt>
      <trkpt lat="45.10951" lon="5.6062">
        <ele>1423</ele>
        <time>2011-06-26T14:35:27Z</time>
      </trkpt>
      <trkpt lat="45.10943" lon="5.60623">
        <ele>1422</ele>
        <time>2011-06-26T14:35:28Z</time>
      </trkpt>
      <trkpt lat="45.10934" lon="5.60624">
        <ele>1422</ele>
        <time>2011-06-26T14:35:29Z</time>
      </trkpt>
      <trkpt lat="45.10924" lon="5.60622">
        <ele>1422</ele>
        <time>2011-06-26T14:35:30Z</time>
      </trkpt>
      <trkpt lat="45.10916" lon="5.60626">
        <ele>1421</ele>
        <time>2011-06-26T14:35:31Z</time>
      </trkpt>
      <trkpt lat="45.10907" lon="5.60626">
        <ele>1420</ele>
        <time>2011-06-26T14:35:32Z</time>
      </trkpt>
      <trkpt lat="45.10899" lon="5.60627">
        <ele>1420</ele>
        <time>2011-06-26T14:35:33Z</time>
      </trkpt>
      <trkpt lat="45.10892" lon="5.60626">
        <ele>1419</ele>
        <time>2011-06-26T14:35:34Z</time>
      </trkpt>
      <trkpt lat="45.10885" lon="5.60627">
        <ele>1419</ele>
        <time>2011-06-26T14:35:35Z</time>
      </trkpt>
      <trkpt lat="45.10881" lon="5.60628">
        <ele>1419</ele>
        <time>2011-06-26T14:35:36Z</time>
      </trkpt>
      <trkpt lat="45.10875" lon="5.60629">
        <ele>1418</ele>
        <time>2011-06-26T14:35:37Z</time>
      </trkpt>
      <trkpt lat="45.10868" lon="5.6063">
        <ele>1418</ele>
        <time>2011-06-26T14:35:39Z</time>
      </trkpt>
      <trkpt lat="45.10862" lon="5.60632">
        <ele>1419</ele>
        <time>2011-06-26T14:35:41Z</time>
      </trkpt>
      <trkpt lat="45.10855" lon="5.60634">
        <ele>1418</ele>
        <time>2011-06-26T14:35:43Z</time>
      </trkpt>
      <trkpt lat="45.10848" lon="5.60633">
        <ele>1418</ele>
        <time>2011-06-26T14:35:45Z</time>
      </trkpt>
      <trkpt lat="45.10844" lon="5.60634">
        <ele>1418</ele>
        <time>2011-06-26T14:35:46Z</time>
      </trkpt>
      <trkpt lat="45.10839" lon="5.60636">
        <ele>1418</ele>
        <time>2011-06-26T14:35:47Z</time>
      </trkpt>
      <trkpt lat="45.10834" lon="5.60637">
        <ele>1418</ele>
        <time>2011-06-26T14:35:48Z</time>
      </trkpt>
      <trkpt lat="45.10828" lon="5.60637">
        <ele>1418</ele>
        <time>2011-06-26T14:35:49Z</time>
      </trkpt>
      <trkpt lat="45.10814" lon="5.60633">
        <ele>1417</ele>
        <time>2011-06-26T14:35:52Z</time>
      </trkpt>
      <trkpt lat="45.10808" lon="5.60632">
        <ele>1418</ele>
        <time>2011-06-26T14:35:53Z</time>
      </trkpt>
      <trkpt lat="45.10801" lon="5.60632">
        <ele>1418</ele>
        <time>2011-06-26T14:35:55Z</time>
      </trkpt>
      <trkpt lat="45.10792" lon="5.60632">
        <ele>1418</ele>
        <time>2011-06-26T14:35:57Z</time>
      </trkpt>
      <trkpt lat="45.10787" lon="5.60632">
        <ele>1418</ele>
        <time>2011-06-26T14:35:58Z</time>
      </trkpt>
      <trkpt lat="45.10779" lon="5.60629">
        <ele>1418</ele>
        <time>2011-06-26T14:36:00Z</time>
      </trkpt>
      <trkpt lat="45.10771" lon="5.60631">
        <ele>1418</ele>
        <time>2011-06-26T14:36:01Z</time>
      </trkpt>
      <trkpt lat="45.10764" lon="5.60632">
        <ele>1418</ele>
        <time>2011-06-26T14:36:02Z</time>
      </trkpt>
      <trkpt lat="45.10756" lon="5.6063">
        <ele>1417</ele>
        <time>2011-06-26T14:36:03Z</time>
      </trkpt>
      <trkpt lat="45.1075" lon="5.6063">
        <ele>1417</ele>
        <time>2011-06-26T14:36:04Z</time>
      </trkpt>
      <trkpt lat="45.10744" lon="5.60628">
        <ele>1417</ele>
        <time>2011-06-26T14:36:05Z</time>
      </trkpt>
      <trkpt lat="45.10739" lon="5.60632">
        <ele>1417</ele>
        <time>2011-06-26T14:36:06Z</time>
      </trkpt>
      <trkpt lat="45.10732" lon="5.60632">
        <ele>1417</ele>
        <time>2011-06-26T14:36:07Z</time>
      </trkpt>
      <trkpt lat="45.10727" lon="5.60631">
        <ele>1418</ele>
        <time>2011-06-26T14:36:08Z</time>
      </trkpt>
      <trkpt lat="45.1072" lon="5.60628">
        <ele>1418</ele>
        <time>2011-06-26T14:36:09Z</time>
      </trkpt>
      <trkpt lat="45.10714" lon="5.60628">
        <ele>1417</ele>
        <time>2011-06-26T14:36:10Z</time>
      </trkpt>
      <trkpt lat="45.10706" lon="5.60627">
        <ele>1417</ele>
        <time>2011-06-26T14:36:11Z</time>
      </trkpt>
      <trkpt lat="45.10699" lon="5.60626">
        <ele>1416</ele>
        <time>2011-06-26T14:36:12Z</time>
      </trkpt>
      <trkpt lat="45.10692" lon="5.60626">
        <ele>1416</ele>
        <time>2011-06-26T14:36:13Z</time>
      </trkpt>
      <trkpt lat="45.10686" lon="5.60624">
        <ele>1416</ele>
        <time>2011-06-26T14:36:14Z</time>
      </trkpt>
      <trkpt lat="45.10679" lon="5.60622">
        <ele>1417</ele>
        <time>2011-06-26T14:36:15Z</time>
      </trkpt>
      <trkpt lat="45.1067" lon="5.60621">
        <ele>1417</ele>
        <time>2011-06-26T14:36:16Z</time>
      </trkpt>
      <trkpt lat="45.10662" lon="5.6062">
        <ele>1417</ele>
        <time>2011-06-26T14:36:17Z</time>
      </trkpt>
      <trkpt lat="45.10656" lon="5.60618">
        <ele>1417</ele>
        <time>2011-06-26T14:36:18Z</time>
      </trkpt>
      <trkpt lat="45.10651" lon="5.60618">
        <ele>1417</ele>
        <time>2011-06-26T14:36:19Z</time>
      </trkpt>
      <trkpt lat="45.10645" lon="5.60618">
        <ele>1417</ele>
        <time>2011-06-26T14:36:20Z</time>
      </trkpt>
      <trkpt lat="45.10638" lon="5.6062">
        <ele>1417</ele>
        <time>2011-06-26T14:36:21Z</time>
      </trkpt>
      <trkpt lat="45.10633" lon="5.60618">
        <ele>1417</ele>
        <time>2011-06-26T14:36:22Z</time>
      </trkpt>
      <trkpt lat="45.10628" lon="5.60618">
        <ele>1416</ele>
        <time>2011-06-26T14:36:23Z</time>
      </trkpt>
      <trkpt lat="45.10618" lon="5.60621">
        <ele>1415</ele>
        <time>2011-06-26T14:36:25Z</time>
      </trkpt>
      <trkpt lat="45.10611" lon="5.60619">
        <ele>1415</ele>
        <time>2011-06-26T14:36:27Z</time>
      </trkpt>
      <trkpt lat="45.10602" lon="5.60617">
        <ele>1414</ele>
        <time>2011-06-26T14:36:29Z</time>
      </trkpt>
      <trkpt lat="45.10597" lon="5.60619">
        <ele>1415</ele>
        <time>2011-06-26T14:36:31Z</time>
      </trkpt>
      <trkpt lat="45.10592" lon="5.60619">
        <ele>1414</ele>
        <time>2011-06-26T14:36:33Z</time>
      </trkpt>
      <trkpt lat="45.10587" lon="5.60618">
        <ele>1414</ele>
        <time>2011-06-26T14:36:35Z</time>
      </trkpt>
      <trkpt lat="45.10582" lon="5.60614">
        <ele>1414</ele>
        <time>2011-06-26T14:36:37Z</time>
      </trkpt>
      <trkpt lat="45.10575" lon="5.60613">
        <ele>1413</ele>
        <time>2011-06-26T14:36:39Z</time>
      </trkpt>
      <trkpt lat="45.10568" lon="5.60612">
        <ele>1412</ele>
        <time>2011-06-26T14:36:41Z</time>
      </trkpt>
      <trkpt lat="45.10561" lon="5.60614">
        <ele>1412</ele>
        <time>2011-06-26T14:36:43Z</time>
      </trkpt>
      <trkpt lat="45.10554" lon="5.60613">
        <ele>1412</ele>
        <time>2011-06-26T14:36:45Z</time>
      </trkpt>
      <trkpt lat="45.10548" lon="5.60611">
        <ele>1412</ele>
        <time>2011-06-26T14:36:47Z</time>
      </trkpt>
      <trkpt lat="45.10543" lon="5.60612">
        <ele>1412</ele>
        <time>2011-06-26T14:36:49Z</time>
      </trkpt>
      <trkpt lat="45.10538" lon="5.60609">
        <ele>1411</ele>
        <time>2011-06-26T14:36:52Z</time>
      </trkpt>
      <trkpt lat="45.10534" lon="5.60611">
        <ele>1410</ele>
        <time>2011-06-26T14:36:56Z</time>
      </trkpt>
      <trkpt lat="45.10527" lon="5.6061">
        <ele>1410</ele>
        <time>2011-06-26T14:36:58Z</time>
      </trkpt>
      <trkpt lat="45.10521" lon="5.60608">
        <ele>1410</ele>
        <time>2011-06-26T14:37:00Z</time>
      </trkpt>
      <trkpt lat="45.10514" lon="5.60607">
        <ele>1411</ele>
        <time>2011-06-26T14:37:02Z</time>
      </trkpt>
      <trkpt lat="45.10508" lon="5.60606">
        <ele>1412</ele>
        <time>2011-06-26T14:37:04Z</time>
      </trkpt>
      <trkpt lat="45.10502" lon="5.60604">
        <ele>1412</ele>
        <time>2011-06-26T14:37:07Z</time>
      </trkpt>
      <trkpt lat="45.10497" lon="5.60603">
        <ele>1412</ele>
        <time>2011-06-26T14:37:10Z</time>
      </trkpt>
      <trkpt lat="45.10492" lon="5.60604">
        <ele>1412</ele>
        <time>2011-06-26T14:37:12Z</time>
      </trkpt>
      <trkpt lat="45.10485" lon="5.60605">
        <ele>1412</ele>
        <time>2011-06-26T14:37:15Z</time>
      </trkpt>
      <trkpt lat="45.10479" lon="5.60607">
        <ele>1412</ele>
        <time>2011-06-26T14:37:17Z</time>
      </trkpt>
      <trkpt lat="45.10474" lon="5.60606">
        <ele>1412</ele>
        <time>2011-06-26T14:37:19Z</time>
      </trkpt>
      <trkpt lat="45.10468" lon="5.60606">
        <ele>1412</ele>
        <time>2011-06-26T14:37:23Z</time>
      </trkpt>
      <trkpt lat="45.10463" lon="5.60605">
        <ele>1413</ele>
        <time>2011-06-26T14:37:25Z</time>
      </trkpt>
      <trkpt lat="45.10458" lon="5.60606">
        <ele>1413</ele>
        <time>2011-06-26T14:37:29Z</time>
      </trkpt>
      <trkpt lat="45.10453" lon="5.60605">
        <ele>1413</ele>
        <time>2011-06-26T14:37:31Z</time>
      </trkpt>
      <trkpt lat="45.10446" lon="5.60603">
        <ele>1412</ele>
        <time>2011-06-26T14:37:33Z</time>
      </trkpt>
      <trkpt lat="45.10441" lon="5.606">
        <ele>1413</ele>
        <time>2011-06-26T14:37:36Z</time>
      </trkpt>
      <trkpt lat="45.10435" lon="5.606">
        <ele>1413</ele>
        <time>2011-06-26T14:37:38Z</time>
      </trkpt>
      <trkpt lat="45.10429" lon="5.60599">
        <ele>1413</ele>
        <time>2011-06-26T14:37:41Z</time>
      </trkpt>
      <trkpt lat="45.10422" lon="5.60598">
        <ele>1413</ele>
        <time>2011-06-26T14:37:43Z</time>
      </trkpt>
      <trkpt lat="45.10418" lon="5.60597">
        <ele>1413</ele>
        <time>2011-06-26T14:37:45Z</time>
      </trkpt>
      <trkpt lat="45.10411" lon="5.60596">
        <ele>1413</ele>
        <time>2011-06-26T14:37:48Z</time>
      </trkpt>
      <trkpt lat="45.10404" lon="5.60593">
        <ele>1414</ele>
        <time>2011-06-26T14:37:50Z</time>
      </trkpt>
      <trkpt lat="45.10399" lon="5.60592">
        <ele>1414</ele>
        <time>2011-06-26T14:37:52Z</time>
      </trkpt>
      <trkpt lat="45.10394" lon="5.60591">
        <ele>1416</ele>
        <time>2011-06-26T14:37:54Z</time>
      </trkpt>
      <trkpt lat="45.10388" lon="5.60588">
        <ele>1416</ele>
        <time>2011-06-26T14:37:56Z</time>
      </trkpt>
      <trkpt lat="45.10383" lon="5.60587">
        <ele>1415</ele>
        <time>2011-06-26T14:37:58Z</time>
      </trkpt>
      <trkpt lat="45.10378" lon="5.60583">
        <ele>1415</ele>
        <time>2011-06-26T14:38:01Z</time>
      </trkpt>
      <trkpt lat="45.10372" lon="5.60582">
        <ele>1415</ele>
        <time>2011-06-26T14:38:03Z</time>
      </trkpt>
      <trkpt lat="45.10367" lon="5.60583">
        <ele>1416</ele>
        <time>2011-06-26T14:38:06Z</time>
      </trkpt>
      <trkpt lat="45.10361" lon="5.60577">
        <ele>1417</ele>
        <time>2011-06-26T14:38:08Z</time>
      </trkpt>
      <trkpt lat="45.10357" lon="5.6058">
        <ele>1418</ele>
        <time>2011-06-26T14:38:10Z</time>
      </trkpt>
      <trkpt lat="45.10351" lon="5.60577">
        <ele>1418</ele>
        <time>2011-06-26T14:38:13Z</time>
      </trkpt>
      <trkpt lat="45.10345" lon="5.60577">
        <ele>1418</ele>
        <time>2011-06-26T14:38:15Z</time>
      </trkpt>
      <trkpt lat="45.1034" lon="5.60575">
        <ele>1419</ele>
        <time>2011-06-26T14:38:17Z</time>
      </trkpt>
      <trkpt lat="45.10336" lon="5.60572">
        <ele>1419</ele>
        <time>2011-06-26T14:38:19Z</time>
      </trkpt>
      <trkpt lat="45.10329" lon="5.60569">
        <ele>1420</ele>
        <time>2011-06-26T14:38:22Z</time>
      </trkpt>
      <trkpt lat="45.10323" lon="5.60568">
        <ele>1421</ele>
        <time>2011-06-26T14:38:25Z</time>
      </trkpt>
      <trkpt lat="45.10318" lon="5.60563">
        <ele>1421</ele>
        <time>2011-06-26T14:38:27Z</time>
      </trkpt>
      <trkpt lat="45.10314" lon="5.60562">
        <ele>1421</ele>
        <time>2011-06-26T14:38:29Z</time>
      </trkpt>
      <trkpt lat="45.1031" lon="5.60558">
        <ele>1421</ele>
        <time>2011-06-26T14:38:31Z</time>
      </trkpt>
      <trkpt lat="45.10303" lon="5.60556">
        <ele>1421</ele>
        <time>2011-06-26T14:38:33Z</time>
      </trkpt>
      <trkpt lat="45.10298" lon="5.60554">
        <ele>1422</ele>
        <time>2011-06-26T14:38:35Z</time>
      </trkpt>
      <trkpt lat="45.10292" lon="5.60552">
        <ele>1423</ele>
        <time>2011-06-26T14:38:38Z</time>
      </trkpt>
      <trkpt lat="45.10284" lon="5.60546">
        <ele>1424</ele>
        <time>2011-06-26T14:38:41Z</time>
      </trkpt>
      <trkpt lat="45.10279" lon="5.60543">
        <ele>1425</ele>
        <time>2011-06-26T14:38:43Z</time>
      </trkpt>
      <trkpt lat="45.10274" lon="5.6054">
        <ele>1425</ele>
        <time>2011-06-26T14:38:46Z</time>
      </trkpt>
      <trkpt lat="45.10266" lon="5.6054">
        <ele>1425</ele>
        <time>2011-06-26T14:38:49Z</time>
      </trkpt>
      <trkpt lat="45.10255" lon="5.60538">
        <ele>1426</ele>
        <time>2011-06-26T14:38:53Z</time>
      </trkpt>
      <trkpt lat="45.10249" lon="5.60539">
        <ele>1426</ele>
        <time>2011-06-26T14:38:55Z</time>
      </trkpt>
      <trkpt lat="45.10243" lon="5.6054">
        <ele>1427</ele>
        <time>2011-06-26T14:38:58Z</time>
      </trkpt>
      <trkpt lat="45.10237" lon="5.60542">
        <ele>1427</ele>
        <time>2011-06-26T14:39:00Z</time>
      </trkpt>
      <trkpt lat="45.10232" lon="5.60542">
        <ele>1427</ele>
        <time>2011-06-26T14:39:04Z</time>
      </trkpt>
      <trkpt lat="45.10222" lon="5.60541">
        <ele>1427</ele>
        <time>2011-06-26T14:39:08Z</time>
      </trkpt>
      <trkpt lat="45.10214" lon="5.6054">
        <ele>1427</ele>
        <time>2011-06-26T14:39:11Z</time>
      </trkpt>
      <trkpt lat="45.10207" lon="5.60539">
        <ele>1427</ele>
        <time>2011-06-26T14:39:14Z</time>
      </trkpt>
      <trkpt lat="45.10199" lon="5.60536">
        <ele>1427</ele>
        <time>2011-06-26T14:39:17Z</time>
      </trkpt>
      <trkpt lat="45.10194" lon="5.60534">
        <ele>1428</ele>
        <time>2011-06-26T14:39:19Z</time>
      </trkpt>
      <trkpt lat="45.1019" lon="5.60531">
        <ele>1428</ele>
        <time>2011-06-26T14:39:21Z</time>
      </trkpt>
      <trkpt lat="45.10185" lon="5.60526">
        <ele>1429</ele>
        <time>2011-06-26T14:39:23Z</time>
      </trkpt>
      <trkpt lat="45.10176" lon="5.60526">
        <ele>1430</ele>
        <time>2011-06-26T14:39:26Z</time>
      </trkpt>
      <trkpt lat="45.10171" lon="5.60523">
        <ele>1431</ele>
        <time>2011-06-26T14:39:28Z</time>
      </trkpt>
      <trkpt lat="45.10166" lon="5.60521">
        <ele>1431</ele>
        <time>2011-06-26T14:39:30Z</time>
      </trkpt>
      <trkpt lat="45.1016" lon="5.60522">
        <ele>1432</ele>
        <time>2011-06-26T14:39:32Z</time>
      </trkpt>
      <trkpt lat="45.10155" lon="5.60522">
        <ele>1433</ele>
        <time>2011-06-26T14:39:35Z</time>
      </trkpt>
      <trkpt lat="45.10149" lon="5.60522">
        <ele>1433</ele>
        <time>2011-06-26T14:39:37Z</time>
      </trkpt>
      <trkpt lat="45.10136" lon="5.60517">
        <ele>1433</ele>
        <time>2011-06-26T14:39:41Z</time>
      </trkpt>
      <trkpt lat="45.1013" lon="5.60517">
        <ele>1433</ele>
        <time>2011-06-26T14:39:43Z</time>
      </trkpt>
      <trkpt lat="45.10124" lon="5.60516">
        <ele>1434</ele>
        <time>2011-06-26T14:39:45Z</time>
      </trkpt>
      <trkpt lat="45.10118" lon="5.60514">
        <ele>1434</ele>
        <time>2011-06-26T14:39:47Z</time>
      </trkpt>
      <trkpt lat="45.10115" lon="5.60509">
        <ele>1434</ele>
        <time>2011-06-26T14:39:49Z</time>
      </trkpt>
      <trkpt lat="45.10109" lon="5.60505">
        <ele>1433</ele>
        <time>2011-06-26T14:39:51Z</time>
      </trkpt>
      <trkpt lat="45.10104" lon="5.60503">
        <ele>1433</ele>
        <time>2011-06-26T14:39:53Z</time>
      </trkpt>
      <trkpt lat="45.10099" lon="5.60504">
        <ele>1433</ele>
        <time>2011-06-26T14:39:55Z</time>
      </trkpt>
      <trkpt lat="45.10094" lon="5.60503">
        <ele>1433</ele>
        <time>2011-06-26T14:39:57Z</time>
      </trkpt>
      <trkpt lat="45.10089" lon="5.60502">
        <ele>1434</ele>
        <time>2011-06-26T14:39:59Z</time>
      </trkpt>
      <trkpt lat="45.10084" lon="5.60496">
        <ele>1435</ele>
        <time>2011-06-26T14:40:01Z</time>
      </trkpt>
      <trkpt lat="45.10079" lon="5.60493">
        <ele>1434</ele>
        <time>2011-06-26T14:40:04Z</time>
      </trkpt>
      <trkpt lat="45.10072" lon="5.60495">
        <ele>1434</ele>
        <time>2011-06-26T14:40:07Z</time>
      </trkpt>
      <trkpt lat="45.10066" lon="5.60495">
        <ele>1435</ele>
        <time>2011-06-26T14:40:10Z</time>
      </trkpt>
      <trkpt lat="45.10062" lon="5.60492">
        <ele>1435</ele>
        <time>2011-06-26T14:40:12Z</time>
      </trkpt>
      <trkpt lat="45.10054" lon="5.60487">
        <ele>1436</ele>
        <time>2011-06-26T14:40:15Z</time>
      </trkpt>
      <trkpt lat="45.10049" lon="5.60484">
        <ele>1437</ele>
        <time>2011-06-26T14:40:17Z</time>
      </trkpt>
      <trkpt lat="45.1004" lon="5.60484">
        <ele>1439</ele>
        <time>2011-06-26T14:40:20Z</time>
      </trkpt>
      <trkpt lat="45.10035" lon="5.6048">
        <ele>1439</ele>
        <time>2011-06-26T14:40:23Z</time>
      </trkpt>
      <trkpt lat="45.10029" lon="5.60474">
        <ele>1440</ele>
        <time>2011-06-26T14:40:26Z</time>
      </trkpt>
      <trkpt lat="45.10023" lon="5.60471">
        <ele>1441</ele>
        <time>2011-06-26T14:40:28Z</time>
      </trkpt>
      <trkpt lat="45.10018" lon="5.60468">
        <ele>1441</ele>
        <time>2011-06-26T14:40:31Z</time>
      </trkpt>
      <trkpt lat="45.10013" lon="5.6047">
        <ele>1441</ele>
        <time>2011-06-26T14:40:33Z</time>
      </trkpt>
      <trkpt lat="45.10008" lon="5.6047">
        <ele>1441</ele>
        <time>2011-06-26T14:40:35Z</time>
      </trkpt>
      <trkpt lat="45.10002" lon="5.60467">
        <ele>1442</ele>
        <time>2011-06-26T14:40:37Z</time>
      </trkpt>
      <trkpt lat="45.09991" lon="5.60462">
        <ele>1444</ele>
        <time>2011-06-26T14:40:41Z</time>
      </trkpt>
      <trkpt lat="45.09986" lon="5.6046">
        <ele>1444</ele>
        <time>2011-06-26T14:40:43Z</time>
      </trkpt>
      <trkpt lat="45.09979" lon="5.60459">
        <ele>1445</ele>
        <time>2011-06-26T14:40:46Z</time>
      </trkpt>
      <trkpt lat="45.09974" lon="5.60458">
        <ele>1446</ele>
        <time>2011-06-26T14:40:49Z</time>
      </trkpt>
      <trkpt lat="45.09967" lon="5.60457">
        <ele>1448</ele>
        <time>2011-06-26T14:40:52Z</time>
      </trkpt>
      <trkpt lat="45.09957" lon="5.60457">
        <ele>1448</ele>
        <time>2011-06-26T14:40:54Z</time>
      </trkpt>
      <trkpt lat="45.09954" lon="5.6046">
        <ele>1449</ele>
        <time>2011-06-26T14:40:59Z</time>
      </trkpt>
      <trkpt lat="45.09943" lon="5.60455">
        <ele>1450</ele>
        <time>2011-06-26T14:41:01Z</time>
      </trkpt>
      <trkpt lat="45.09939" lon="5.60452">
        <ele>1451</ele>
        <time>2011-06-26T14:41:04Z</time>
      </trkpt>
      <trkpt lat="45.09934" lon="5.60452">
        <ele>1452</ele>
        <time>2011-06-26T14:41:06Z</time>
      </trkpt>
      <trkpt lat="45.09927" lon="5.6045">
        <ele>1453</ele>
        <time>2011-06-26T14:41:12Z</time>
      </trkpt>
      <trkpt lat="45.09921" lon="5.60451">
        <ele>1452</ele>
        <time>2011-06-26T14:41:17Z</time>
      </trkpt>
      <trkpt lat="45.09912" lon="5.60451">
        <ele>1452</ele>
        <time>2011-06-26T14:41:21Z</time>
      </trkpt>
      <trkpt lat="45.09905" lon="5.6045">
        <ele>1452</ele>
        <time>2011-06-26T14:41:23Z</time>
      </trkpt>
      <trkpt lat="45.09898" lon="5.60449">
        <ele>1451</ele>
        <time>2011-06-26T14:41:25Z</time>
      </trkpt>
      <trkpt lat="45.09892" lon="5.60444">
        <ele>1452</ele>
        <time>2011-06-26T14:41:28Z</time>
      </trkpt>
      <trkpt lat="45.09886" lon="5.60443">
        <ele>1453</ele>
        <time>2011-06-26T14:41:30Z</time>
      </trkpt>
      <trkpt lat="45.0988" lon="5.60442">
        <ele>1453</ele>
        <time>2011-06-26T14:41:32Z</time>
      </trkpt>
      <trkpt lat="45.09875" lon="5.6044">
        <ele>1456</ele>
        <time>2011-06-26T14:41:36Z</time>
      </trkpt>
      <trkpt lat="45.0987" lon="5.6044">
        <ele>1455</ele>
        <time>2011-06-26T14:41:38Z</time>
      </trkpt>
      <trkpt lat="45.09863" lon="5.60438">
        <ele>1456</ele>
        <time>2011-06-26T14:41:41Z</time>
      </trkpt>
      <trkpt lat="45.09858" lon="5.60436">
        <ele>1457</ele>
        <time>2011-06-26T14:41:43Z</time>
      </trkpt>
      <trkpt lat="45.09853" lon="5.60436">
        <ele>1456</ele>
        <time>2011-06-26T14:41:44Z</time>
      </trkpt>
      <trkpt lat="45.09848" lon="5.60435">
        <ele>1457</ele>
        <time>2011-06-26T14:41:48Z</time>
      </trkpt>
      <trkpt lat="45.09844" lon="5.60431">
        <ele>1459</ele>
        <time>2011-06-26T14:41:50Z</time>
      </trkpt>
      <trkpt lat="45.09838" lon="5.60428">
        <ele>1459</ele>
        <time>2011-06-26T14:41:52Z</time>
      </trkpt>
      <trkpt lat="45.09832" lon="5.60427">
        <ele>1458</ele>
        <time>2011-06-26T14:41:55Z</time>
      </trkpt>
      <trkpt lat="45.09827" lon="5.60428">
        <ele>1460</ele>
        <time>2011-06-26T14:41:59Z</time>
      </trkpt>
      <trkpt lat="45.09822" lon="5.60425">
        <ele>1461</ele>
        <time>2011-06-26T14:42:01Z</time>
      </trkpt>
      <trkpt lat="45.09817" lon="5.60426">
        <ele>1461</ele>
        <time>2011-06-26T14:42:03Z</time>
      </trkpt>
      <trkpt lat="45.09812" lon="5.60429">
        <ele>1463</ele>
        <time>2011-06-26T14:42:06Z</time>
      </trkpt>
      <trkpt lat="45.09807" lon="5.60428">
        <ele>1463</ele>
        <time>2011-06-26T14:42:08Z</time>
      </trkpt>
      <trkpt lat="45.09802" lon="5.60428">
        <ele>1464</ele>
        <time>2011-06-26T14:42:10Z</time>
      </trkpt>
      <trkpt lat="45.09796" lon="5.60427">
        <ele>1464</ele>
        <time>2011-06-26T14:42:12Z</time>
      </trkpt>
      <trkpt lat="45.09792" lon="5.60426">
        <ele>1464</ele>
        <time>2011-06-26T14:42:14Z</time>
      </trkpt>
      <trkpt lat="45.09786" lon="5.60426">
        <ele>1464</ele>
        <time>2011-06-26T14:42:15Z</time>
      </trkpt>
      <trkpt lat="45.0978" lon="5.60428">
        <ele>1465</ele>
        <time>2011-06-26T14:42:17Z</time>
      </trkpt>
      <trkpt lat="45.09776" lon="5.60425">
        <ele>1465</ele>
        <time>2011-06-26T14:42:19Z</time>
      </trkpt>
      <trkpt lat="45.09771" lon="5.60426">
        <ele>1465</ele>
        <time>2011-06-26T14:42:21Z</time>
      </trkpt>
      <trkpt lat="45.09766" lon="5.60429">
        <ele>1465</ele>
        <time>2011-06-26T14:42:24Z</time>
      </trkpt>
      <trkpt lat="45.09761" lon="5.60426">
        <ele>1467</ele>
        <time>2011-06-26T14:42:26Z</time>
      </trkpt>
      <trkpt lat="45.09756" lon="5.60427">
        <ele>1466</ele>
        <time>2011-06-26T14:42:28Z</time>
      </trkpt>
      <trkpt lat="45.09749" lon="5.60428">
        <ele>1465</ele>
        <time>2011-06-26T14:42:31Z</time>
      </trkpt>
      <trkpt lat="45.09743" lon="5.60426">
        <ele>1465</ele>
        <time>2011-06-26T14:42:33Z</time>
      </trkpt>
      <trkpt lat="45.09736" lon="5.60422">
        <ele>1466</ele>
        <time>2011-06-26T14:42:35Z</time>
      </trkpt>
      <trkpt lat="45.0973" lon="5.60417">
        <ele>1465</ele>
        <time>2011-06-26T14:42:38Z</time>
      </trkpt>
      <trkpt lat="45.09724" lon="5.60416">
        <ele>1466</ele>
        <time>2011-06-26T14:42:41Z</time>
      </trkpt>
      <trkpt lat="45.09718" lon="5.60414">
        <ele>1466</ele>
        <time>2011-06-26T14:42:44Z</time>
      </trkpt>
      <trkpt lat="45.09713" lon="5.60413">
        <ele>1467</ele>
        <time>2011-06-26T14:42:46Z</time>
      </trkpt>
      <trkpt lat="45.09708" lon="5.60412">
        <ele>1468</ele>
        <time>2011-06-26T14:42:48Z</time>
      </trkpt>
      <trkpt lat="45.09702" lon="5.60412">
        <ele>1468</ele>
        <time>2011-06-26T14:42:50Z</time>
      </trkpt>
      <trkpt lat="45.09696" lon="5.60409">
        <ele>1470</ele>
        <time>2011-06-26T14:42:52Z</time>
      </trkpt>
      <trkpt lat="45.09691" lon="5.60407">
        <ele>1472</ele>
        <time>2011-06-26T14:42:54Z</time>
      </trkpt>
      <trkpt lat="45.09685" lon="5.60405">
        <ele>1472</ele>
        <time>2011-06-26T14:42:57Z</time>
      </trkpt>
      <trkpt lat="45.0968" lon="5.60402">
        <ele>1471</ele>
        <time>2011-06-26T14:43:00Z</time>
      </trkpt>
      <trkpt lat="45.09674" lon="5.60399">
        <ele>1471</ele>
        <time>2011-06-26T14:43:02Z</time>
      </trkpt>
      <trkpt lat="45.09667" lon="5.60396">
        <ele>1473</ele>
        <time>2011-06-26T14:43:06Z</time>
      </trkpt>
      <trkpt lat="45.09662" lon="5.60394">
        <ele>1473</ele>
        <time>2011-06-26T14:43:09Z</time>
      </trkpt>
      <trkpt lat="45.09656" lon="5.60392">
        <ele>1472</ele>
        <time>2011-06-26T14:43:11Z</time>
      </trkpt>
      <trkpt lat="45.09652" lon="5.60392">
        <ele>1471</ele>
        <time>2011-06-26T14:43:14Z</time>
      </trkpt>
      <trkpt lat="45.09644" lon="5.6039">
        <ele>1471</ele>
        <time>2011-06-26T14:43:17Z</time>
      </trkpt>
      <trkpt lat="45.09637" lon="5.60386">
        <ele>1472</ele>
        <time>2011-06-26T14:43:19Z</time>
      </trkpt>
      <trkpt lat="45.09631" lon="5.60384">
        <ele>1473</ele>
        <time>2011-06-26T14:43:21Z</time>
      </trkpt>
      <trkpt lat="45.09626" lon="5.60383">
        <ele>1473</ele>
        <time>2011-06-26T14:43:23Z</time>
      </trkpt>
      <trkpt lat="45.09621" lon="5.60382">
        <ele>1473</ele>
        <time>2011-06-26T14:43:26Z</time>
      </trkpt>
      <trkpt lat="45.09615" lon="5.60379">
        <ele>1474</ele>
        <time>2011-06-26T14:43:30Z</time>
      </trkpt>
      <trkpt lat="45.09609" lon="5.60378">
        <ele>1476</ele>
        <time>2011-06-26T14:43:33Z</time>
      </trkpt>
      <trkpt lat="45.09602" lon="5.60376">
        <ele>1476</ele>
        <time>2011-06-26T14:43:35Z</time>
      </trkpt>
      <trkpt lat="45.09595" lon="5.6037">
        <ele>1477</ele>
        <time>2011-06-26T14:43:37Z</time>
      </trkpt>
      <trkpt lat="45.09584" lon="5.60365">
        <ele>1479</ele>
        <time>2011-06-26T14:43:41Z</time>
      </trkpt>
      <trkpt lat="45.09579" lon="5.60362">
        <ele>1480</ele>
        <time>2011-06-26T14:43:44Z</time>
      </trkpt>
      <trkpt lat="45.09575" lon="5.60358">
        <ele>1479</ele>
        <time>2011-06-26T14:43:51Z</time>
      </trkpt>
      <trkpt lat="45.09571" lon="5.60354">
        <ele>1478</ele>
        <time>2011-06-26T14:44:04Z</time>
      </trkpt>
      <trkpt lat="45.09566" lon="5.6035">
        <ele>1480</ele>
        <time>2011-06-26T14:44:08Z</time>
      </trkpt>
      <trkpt lat="45.09562" lon="5.60349">
        <ele>1481</ele>
        <time>2011-06-26T14:44:10Z</time>
      </trkpt>
      <trkpt lat="45.09556" lon="5.60344">
        <ele>1483</ele>
        <time>2011-06-26T14:44:14Z</time>
      </trkpt>
      <trkpt lat="45.09552" lon="5.60339">
        <ele>1482</ele>
        <time>2011-06-26T14:44:16Z</time>
      </trkpt>
      <trkpt lat="45.09548" lon="5.60334">
        <ele>1482</ele>
        <time>2011-06-26T14:44:18Z</time>
      </trkpt>
      <trkpt lat="45.09545" lon="5.6033">
        <ele>1482</ele>
        <time>2011-06-26T14:44:20Z</time>
      </trkpt>
      <trkpt lat="45.0954" lon="5.60327">
        <ele>1484</ele>
        <time>2011-06-26T14:44:23Z</time>
      </trkpt>
      <trkpt lat="45.09535" lon="5.60324">
        <ele>1484</ele>
        <time>2011-06-26T14:44:25Z</time>
      </trkpt>
      <trkpt lat="45.0953" lon="5.60321">
        <ele>1484</ele>
        <time>2011-06-26T14:44:27Z</time>
      </trkpt>
      <trkpt lat="45.09526" lon="5.60318">
        <ele>1484</ele>
        <time>2011-06-26T14:44:30Z</time>
      </trkpt>
      <trkpt lat="45.09519" lon="5.60313">
        <ele>1485</ele>
        <time>2011-06-26T14:44:33Z</time>
      </trkpt>
      <trkpt lat="45.09513" lon="5.60312">
        <ele>1484</ele>
        <time>2011-06-26T14:44:35Z</time>
      </trkpt>
      <trkpt lat="45.09502" lon="5.6031">
        <ele>1486</ele>
        <time>2011-06-26T14:44:41Z</time>
      </trkpt>
      <trkpt lat="45.09498" lon="5.60308">
        <ele>1486</ele>
        <time>2011-06-26T14:44:44Z</time>
      </trkpt>
      <trkpt lat="45.09494" lon="5.603">
        <ele>1486</ele>
        <time>2011-06-26T14:44:47Z</time>
      </trkpt>
      <trkpt lat="45.09488" lon="5.60295">
        <ele>1486</ele>
        <time>2011-06-26T14:44:50Z</time>
      </trkpt>
      <trkpt lat="45.09483" lon="5.6029">
        <ele>1487</ele>
        <time>2011-06-26T14:44:53Z</time>
      </trkpt>
      <trkpt lat="45.09479" lon="5.60283">
        <ele>1487</ele>
        <time>2011-06-26T14:44:56Z</time>
      </trkpt>
      <trkpt lat="45.09476" lon="5.60278">
        <ele>1488</ele>
        <time>2011-06-26T14:44:58Z</time>
      </trkpt>
      <trkpt lat="45.0947" lon="5.60269">
        <ele>1491</ele>
        <time>2011-06-26T14:45:02Z</time>
      </trkpt>
      <trkpt lat="45.09468" lon="5.60262">
        <ele>1491</ele>
        <time>2011-06-26T14:45:04Z</time>
      </trkpt>
      <trkpt lat="45.09465" lon="5.60256">
        <ele>1491</ele>
        <time>2011-06-26T14:45:06Z</time>
      </trkpt>
      <trkpt lat="45.09463" lon="5.6025">
        <ele>1491</ele>
        <time>2011-06-26T14:45:08Z</time>
      </trkpt>
      <trkpt lat="45.09462" lon="5.60241">
        <ele>1491</ele>
        <time>2011-06-26T14:45:11Z</time>
      </trkpt>
      <trkpt lat="45.09463" lon="5.60234">
        <ele>1492</ele>
        <time>2011-06-26T14:45:14Z</time>
      </trkpt>
      <trkpt lat="45.09464" lon="5.60221">
        <ele>1495</ele>
        <time>2011-06-26T14:45:18Z</time>
      </trkpt>
      <trkpt lat="45.09463" lon="5.60212">
        <ele>1497</ele>
        <time>2011-06-26T14:45:21Z</time>
      </trkpt>
      <trkpt lat="45.09463" lon="5.60205">
        <ele>1498</ele>
        <time>2011-06-26T14:45:23Z</time>
      </trkpt>
      <trkpt lat="45.09461" lon="5.60196">
        <ele>1497</ele>
        <time>2011-06-26T14:45:26Z</time>
      </trkpt>
      <trkpt lat="45.09461" lon="5.60188">
        <ele>1498</ele>
        <time>2011-06-26T14:45:29Z</time>
      </trkpt>
      <trkpt lat="45.0946" lon="5.60181">
        <ele>1500</ele>
        <time>2011-06-26T14:45:31Z</time>
      </trkpt>
      <trkpt lat="45.09459" lon="5.60172">
        <ele>1501</ele>
        <time>2011-06-26T14:45:34Z</time>
      </trkpt>
      <trkpt lat="45.0946" lon="5.60165">
        <ele>1501</ele>
        <time>2011-06-26T14:45:37Z</time>
      </trkpt>
      <trkpt lat="45.09464" lon="5.60162">
        <ele>1501</ele>
        <time>2011-06-26T14:45:40Z</time>
      </trkpt>
      <trkpt lat="45.0947" lon="5.60162">
        <ele>1502</ele>
        <time>2011-06-26T14:45:43Z</time>
      </trkpt>
      <trkpt lat="45.09476" lon="5.60161">
        <ele>1501</ele>
        <time>2011-06-26T14:45:46Z</time>
      </trkpt>
      <trkpt lat="45.09483" lon="5.60162">
        <ele>1500</ele>
        <time>2011-06-26T14:45:49Z</time>
      </trkpt>
      <trkpt lat="45.09488" lon="5.60163">
        <ele>1500</ele>
        <time>2011-06-26T14:45:51Z</time>
      </trkpt>
      <trkpt lat="45.09492" lon="5.60163">
        <ele>1499</ele>
        <time>2011-06-26T14:45:53Z</time>
      </trkpt>
      <trkpt lat="45.09498" lon="5.60164">
        <ele>1499</ele>
        <time>2011-06-26T14:45:55Z</time>
      </trkpt>
      <trkpt lat="45.09504" lon="5.60163">
        <ele>1498</ele>
        <time>2011-06-26T14:45:57Z</time>
      </trkpt>
      <trkpt lat="45.09508" lon="5.60163">
        <ele>1499</ele>
        <time>2011-06-26T14:45:59Z</time>
      </trkpt>
      <trkpt lat="45.09514" lon="5.60162">
        <ele>1499</ele>
        <time>2011-06-26T14:46:01Z</time>
      </trkpt>
      <trkpt lat="45.09519" lon="5.6016">
        <ele>1498</ele>
        <time>2011-06-26T14:46:03Z</time>
      </trkpt>
      <trkpt lat="45.09523" lon="5.60157">
        <ele>1498</ele>
        <time>2011-06-26T14:46:05Z</time>
      </trkpt>
      <trkpt lat="45.09528" lon="5.60155">
        <ele>1498</ele>
        <time>2011-06-26T14:46:07Z</time>
      </trkpt>
      <trkpt lat="45.09532" lon="5.60152">
        <ele>1498</ele>
        <time>2011-06-26T14:46:09Z</time>
      </trkpt>
      <trkpt lat="45.09537" lon="5.60151">
        <ele>1498</ele>
        <time>2011-06-26T14:46:11Z</time>
      </trkpt>
      <trkpt lat="45.09542" lon="5.60149">
        <ele>1498</ele>
        <time>2011-06-26T14:46:13Z</time>
      </trkpt>
      <trkpt lat="45.09546" lon="5.60149">
        <ele>1499</ele>
        <time>2011-06-26T14:46:15Z</time>
      </trkpt>
      <trkpt lat="45.09551" lon="5.60148">
        <ele>1499</ele>
        <time>2011-06-26T14:46:17Z</time>
      </trkpt>
      <trkpt lat="45.09557" lon="5.60146">
        <ele>1499</ele>
        <time>2011-06-26T14:46:19Z</time>
      </trkpt>
      <trkpt lat="45.09562" lon="5.60143">
        <ele>1498</ele>
        <time>2011-06-26T14:46:21Z</time>
      </trkpt>
      <trkpt lat="45.09567" lon="5.60142">
        <ele>1497</ele>
        <time>2011-06-26T14:46:23Z</time>
      </trkpt>
      <trkpt lat="45.09574" lon="5.60141">
        <ele>1498</ele>
        <time>2011-06-26T14:46:26Z</time>
      </trkpt>
      <trkpt lat="45.0958" lon="5.6014">
        <ele>1497</ele>
        <time>2011-06-26T14:46:28Z</time>
      </trkpt>
      <trkpt lat="45.09585" lon="5.6014">
        <ele>1497</ele>
        <time>2011-06-26T14:46:30Z</time>
      </trkpt>
      <trkpt lat="45.09592" lon="5.60138">
        <ele>1498</ele>
        <time>2011-06-26T14:46:33Z</time>
      </trkpt>
      <trkpt lat="45.09597" lon="5.60137">
        <ele>1498</ele>
        <time>2011-06-26T14:46:35Z</time>
      </trkpt>
      <trkpt lat="45.09602" lon="5.60135">
        <ele>1498</ele>
        <time>2011-06-26T14:46:37Z</time>
      </trkpt>
      <trkpt lat="45.09612" lon="5.60132">
        <ele>1498</ele>
        <time>2011-06-26T14:46:41Z</time>
      </trkpt>
      <trkpt lat="45.09619" lon="5.60129">
        <ele>1498</ele>
        <time>2011-06-26T14:46:43Z</time>
      </trkpt>
      <trkpt lat="45.09625" lon="5.60127">
        <ele>1498</ele>
        <time>2011-06-26T14:46:45Z</time>
      </trkpt>
      <trkpt lat="45.0963" lon="5.60126">
        <ele>1499</ele>
        <time>2011-06-26T14:46:47Z</time>
      </trkpt>
      <trkpt lat="45.09636" lon="5.60124">
        <ele>1499</ele>
        <time>2011-06-26T14:46:50Z</time>
      </trkpt>
      <trkpt lat="45.09642" lon="5.60122">
        <ele>1500</ele>
        <time>2011-06-26T14:46:53Z</time>
      </trkpt>
      <trkpt lat="45.09647" lon="5.60121">
        <ele>1500</ele>
        <time>2011-06-26T14:46:55Z</time>
      </trkpt>
      <trkpt lat="45.09653" lon="5.60118">
        <ele>1500</ele>
        <time>2011-06-26T14:46:58Z</time>
      </trkpt>
      <trkpt lat="45.0966" lon="5.60115">
        <ele>1501</ele>
        <time>2011-06-26T14:47:01Z</time>
      </trkpt>
      <trkpt lat="45.09665" lon="5.60114">
        <ele>1501</ele>
        <time>2011-06-26T14:47:03Z</time>
      </trkpt>
      <trkpt lat="45.0967" lon="5.60112">
        <ele>1504</ele>
        <time>2011-06-26T14:47:06Z</time>
      </trkpt>
      <trkpt lat="45.09675" lon="5.60109">
        <ele>1504</ele>
        <time>2011-06-26T14:47:08Z</time>
      </trkpt>
      <trkpt lat="45.09682" lon="5.60106">
        <ele>1505</ele>
        <time>2011-06-26T14:47:11Z</time>
      </trkpt>
      <trkpt lat="45.09687" lon="5.60104">
        <ele>1507</ele>
        <time>2011-06-26T14:47:13Z</time>
      </trkpt>
      <trkpt lat="45.09692" lon="5.60101">
        <ele>1508</ele>
        <time>2011-06-26T14:47:15Z</time>
      </trkpt>
      <trkpt lat="45.09696" lon="5.60096">
        <ele>1509</ele>
        <time>2011-06-26T14:47:17Z</time>
      </trkpt>
      <trkpt lat="45.09701" lon="5.6009">
        <ele>1508</ele>
        <time>2011-06-26T14:47:20Z</time>
      </trkpt>
      <trkpt lat="45.09705" lon="5.60087">
        <ele>1508</ele>
        <time>2011-06-26T14:47:22Z</time>
      </trkpt>
      <trkpt lat="45.09711" lon="5.60085">
        <ele>1509</ele>
        <time>2011-06-26T14:47:25Z</time>
      </trkpt>
      <trkpt lat="45.0973" lon="5.60078">
        <ele>1511</ele>
        <time>2011-06-26T14:47:35Z</time>
      </trkpt>
      <trkpt lat="45.09736" lon="5.60076">
        <ele>1511</ele>
        <time>2011-06-26T14:47:38Z</time>
      </trkpt>
      <trkpt lat="45.09743" lon="5.60075">
        <ele>1512</ele>
        <time>2011-06-26T14:47:41Z</time>
      </trkpt>
      <trkpt lat="45.09749" lon="5.60071">
        <ele>1512</ele>
        <time>2011-06-26T14:47:44Z</time>
      </trkpt>
      <trkpt lat="45.09756" lon="5.60069">
        <ele>1513</ele>
        <time>2011-06-26T14:47:47Z</time>
      </trkpt>
      <trkpt lat="45.0976" lon="5.60066">
        <ele>1514</ele>
        <time>2011-06-26T14:47:49Z</time>
      </trkpt>
      <trkpt lat="45.09766" lon="5.60062">
        <ele>1513</ele>
        <time>2011-06-26T14:47:51Z</time>
      </trkpt>
      <trkpt lat="45.09773" lon="5.60057">
        <ele>1512</ele>
        <time>2011-06-26T14:47:53Z</time>
      </trkpt>
      <trkpt lat="45.09778" lon="5.60055">
        <ele>1512</ele>
        <time>2011-06-26T14:47:54Z</time>
      </trkpt>
      <trkpt lat="45.09785" lon="5.60052">
        <ele>1512</ele>
        <time>2011-06-26T14:47:56Z</time>
      </trkpt>
      <trkpt lat="45.09789" lon="5.6005">
        <ele>1512</ele>
        <time>2011-06-26T14:47:57Z</time>
      </trkpt>
      <trkpt lat="45.09793" lon="5.60047">
        <ele>1512</ele>
        <time>2011-06-26T14:47:58Z</time>
      </trkpt>
      <trkpt lat="45.09798" lon="5.60045">
        <ele>1512</ele>
        <time>2011-06-26T14:47:59Z</time>
      </trkpt>
      <trkpt lat="45.09805" lon="5.6004">
        <ele>1512</ele>
        <time>2011-06-26T14:48:01Z</time>
      </trkpt>
      <trkpt lat="45.09809" lon="5.60039">
        <ele>1511</ele>
        <time>2011-06-26T14:48:02Z</time>
      </trkpt>
      <trkpt lat="45.09814" lon="5.60037">
        <ele>1511</ele>
        <time>2011-06-26T14:48:03Z</time>
      </trkpt>
      <trkpt lat="45.09823" lon="5.60034">
        <ele>1511</ele>
        <time>2011-06-26T14:48:05Z</time>
      </trkpt>
      <trkpt lat="45.09831" lon="5.60033">
        <ele>1511</ele>
        <time>2011-06-26T14:48:07Z</time>
      </trkpt>
      <trkpt lat="45.09836" lon="5.60031">
        <ele>1511</ele>
        <time>2011-06-26T14:48:08Z</time>
      </trkpt>
      <trkpt lat="45.0984" lon="5.60029">
        <ele>1511</ele>
        <time>2011-06-26T14:48:09Z</time>
      </trkpt>
      <trkpt lat="45.09844" lon="5.60026">
        <ele>1510</ele>
        <time>2011-06-26T14:48:10Z</time>
      </trkpt>
      <trkpt lat="45.09848" lon="5.60024">
        <ele>1510</ele>
        <time>2011-06-26T14:48:11Z</time>
      </trkpt>
      <trkpt lat="45.09853" lon="5.60022">
        <ele>1510</ele>
        <time>2011-06-26T14:48:12Z</time>
      </trkpt>
      <trkpt lat="45.09858" lon="5.60019">
        <ele>1510</ele>
        <time>2011-06-26T14:48:13Z</time>
      </trkpt>
      <trkpt lat="45.09862" lon="5.60015">
        <ele>1509</ele>
        <time>2011-06-26T14:48:14Z</time>
      </trkpt>
      <trkpt lat="45.09868" lon="5.60011">
        <ele>1509</ele>
        <time>2011-06-26T14:48:15Z</time>
      </trkpt>
      <trkpt lat="45.09875" lon="5.60007">
        <ele>1510</ele>
        <time>2011-06-26T14:48:16Z</time>
      </trkpt>
      <trkpt lat="45.09883" lon="5.60002">
        <ele>1509</ele>
        <time>2011-06-26T14:48:17Z</time>
      </trkpt>
      <trkpt lat="45.09891" lon="5.6">
        <ele>1509</ele>
        <time>2011-06-26T14:48:18Z</time>
      </trkpt>
      <trkpt lat="45.09898" lon="5.59996">
        <ele>1509</ele>
        <time>2011-06-26T14:48:19Z</time>
      </trkpt>
      <trkpt lat="45.09903" lon="5.59994">
        <ele>1509</ele>
        <time>2011-06-26T14:48:20Z</time>
      </trkpt>
      <trkpt lat="45.0991" lon="5.59994">
        <ele>1510</ele>
        <time>2011-06-26T14:48:21Z</time>
      </trkpt>
      <trkpt lat="45.09918" lon="5.59996">
        <ele>1510</ele>
        <time>2011-06-26T14:48:23Z</time>
      </trkpt>
      <trkpt lat="45.09922" lon="5.60001">
        <ele>1510</ele>
        <time>2011-06-26T14:48:25Z</time>
      </trkpt>
      <trkpt lat="45.0993" lon="5.60004">
        <ele>1511</ele>
        <time>2011-06-26T14:48:27Z</time>
      </trkpt>
      <trkpt lat="45.09936" lon="5.60007">
        <ele>1511</ele>
        <time>2011-06-26T14:48:29Z</time>
      </trkpt>
      <trkpt lat="45.09944" lon="5.60007">
        <ele>1511</ele>
        <time>2011-06-26T14:48:31Z</time>
      </trkpt>
      <trkpt lat="45.0995" lon="5.60004">
        <ele>1511</ele>
        <time>2011-06-26T14:48:33Z</time>
      </trkpt>
      <trkpt lat="45.09956" lon="5.60003">
        <ele>1511</ele>
        <time>2011-06-26T14:48:35Z</time>
      </trkpt>
      <trkpt lat="45.09963" lon="5.59998">
        <ele>1513</ele>
        <time>2011-06-26T14:48:37Z</time>
      </trkpt>
      <trkpt lat="45.09965" lon="5.5999">
        <ele>1513</ele>
        <time>2011-06-26T14:48:39Z</time>
      </trkpt>
      <trkpt lat="45.0997" lon="5.59985">
        <ele>1513</ele>
        <time>2011-06-26T14:48:41Z</time>
      </trkpt>
      <trkpt lat="45.09974" lon="5.59981">
        <ele>1513</ele>
        <time>2011-06-26T14:48:47Z</time>
      </trkpt>
      <trkpt lat="45.09979" lon="5.59979">
        <ele>1514</ele>
        <time>2011-06-26T14:48:52Z</time>
      </trkpt>
      <trkpt lat="45.09984" lon="5.59976">
        <ele>1515</ele>
        <time>2011-06-26T14:49:00Z</time>
      </trkpt>
      <trkpt lat="45.0999" lon="5.59974">
        <ele>1517</ele>
        <time>2011-06-26T14:50:22Z</time>
      </trkpt>
      <trkpt lat="45.09997" lon="5.59972">
        <ele>1518</ele>
        <time>2011-06-26T14:50:24Z</time>
      </trkpt>
      <trkpt lat="45.10006" lon="5.59968">
        <ele>1518</ele>
        <time>2011-06-26T14:50:26Z</time>
      </trkpt>
      <trkpt lat="45.1001" lon="5.59965">
        <ele>1516</ele>
        <time>2011-06-26T14:50:27Z</time>
      </trkpt>
      <trkpt lat="45.10016" lon="5.59961">
        <ele>1516</ele>
        <time>2011-06-26T14:50:28Z</time>
      </trkpt>
      <trkpt lat="45.10022" lon="5.59956">
        <ele>1516</ele>
        <time>2011-06-26T14:50:29Z</time>
      </trkpt>
      <trkpt lat="45.10027" lon="5.59954">
        <ele>1516</ele>
        <time>2011-06-26T14:50:30Z</time>
      </trkpt>
      <trkpt lat="45.10033" lon="5.59951">
        <ele>1516</ele>
        <time>2011-06-26T14:50:31Z</time>
      </trkpt>
      <trkpt lat="45.10038" lon="5.59949">
        <ele>1517</ele>
        <time>2011-06-26T14:50:32Z</time>
      </trkpt>
      <trkpt lat="45.10043" lon="5.59946">
        <ele>1517</ele>
        <time>2011-06-26T14:50:33Z</time>
      </trkpt>
      <trkpt lat="45.1005" lon="5.59945">
        <ele>1518</ele>
        <time>2011-06-26T14:50:34Z</time>
      </trkpt>
      <trkpt lat="45.10054" lon="5.59945">
        <ele>1518</ele>
        <time>2011-06-26T14:50:35Z</time>
      </trkpt>
      <trkpt lat="45.10059" lon="5.59943">
        <ele>1519</ele>
        <time>2011-06-26T14:50:36Z</time>
      </trkpt>
      <trkpt lat="45.10065" lon="5.5994">
        <ele>1518</ele>
        <time>2011-06-26T14:50:38Z</time>
      </trkpt>
      <trkpt lat="45.10073" lon="5.59937">
        <ele>1517</ele>
        <time>2011-06-26T14:50:40Z</time>
      </trkpt>
      <trkpt lat="45.1008" lon="5.59934">
        <ele>1518</ele>
        <time>2011-06-26T14:50:42Z</time>
      </trkpt>
      <trkpt lat="45.10085" lon="5.59932">
        <ele>1518</ele>
        <time>2011-06-26T14:50:43Z</time>
      </trkpt>
      <trkpt lat="45.10093" lon="5.5993">
        <ele>1520</ele>
        <time>2011-06-26T14:50:45Z</time>
      </trkpt>
      <trkpt lat="45.10104" lon="5.59931">
        <ele>1519</ele>
        <time>2011-06-26T14:50:47Z</time>
      </trkpt>
      <trkpt lat="45.10109" lon="5.5993">
        <ele>1518</ele>
        <time>2011-06-26T14:50:48Z</time>
      </trkpt>
      <trkpt lat="45.10117" lon="5.59929">
        <ele>1517</ele>
        <time>2011-06-26T14:50:50Z</time>
      </trkpt>
      <trkpt lat="45.10124" lon="5.59929">
        <ele>1517</ele>
        <time>2011-06-26T14:50:52Z</time>
      </trkpt>
      <trkpt lat="45.10129" lon="5.59932">
        <ele>1517</ele>
        <time>2011-06-26T14:50:54Z</time>
      </trkpt>
      <trkpt lat="45.10136" lon="5.59934">
        <ele>1518</ele>
        <time>2011-06-26T14:50:56Z</time>
      </trkpt>
      <trkpt lat="45.10141" lon="5.59933">
        <ele>1517</ele>
        <time>2011-06-26T14:50:58Z</time>
      </trkpt>
      <trkpt lat="45.10148" lon="5.59933">
        <ele>1517</ele>
        <time>2011-06-26T14:51:00Z</time>
      </trkpt>
      <trkpt lat="45.10154" lon="5.59934">
        <ele>1517</ele>
        <time>2011-06-26T14:51:02Z</time>
      </trkpt>
      <trkpt lat="45.10159" lon="5.59932">
        <ele>1517</ele>
        <time>2011-06-26T14:51:04Z</time>
      </trkpt>
      <trkpt lat="45.10164" lon="5.59933">
        <ele>1518</ele>
        <time>2011-06-26T14:51:07Z</time>
      </trkpt>
      <trkpt lat="45.1017" lon="5.59932">
        <ele>1519</ele>
        <time>2011-06-26T14:51:10Z</time>
      </trkpt>
      <trkpt lat="45.10175" lon="5.59931">
        <ele>1519</ele>
        <time>2011-06-26T14:51:13Z</time>
      </trkpt>
      <trkpt lat="45.10181" lon="5.59929">
        <ele>1520</ele>
        <time>2011-06-26T14:51:16Z</time>
      </trkpt>
      <trkpt lat="45.10188" lon="5.59929">
        <ele>1520</ele>
        <time>2011-06-26T14:51:19Z</time>
      </trkpt>
      <trkpt lat="45.10193" lon="5.59927">
        <ele>1521</ele>
        <time>2011-06-26T14:51:22Z</time>
      </trkpt>
      <trkpt lat="45.10198" lon="5.59925">
        <ele>1521</ele>
        <time>2011-06-26T14:51:25Z</time>
      </trkpt>
      <trkpt lat="45.10202" lon="5.59923">
        <ele>1522</ele>
        <time>2011-06-26T14:51:27Z</time>
      </trkpt>
      <trkpt lat="45.10207" lon="5.59922">
        <ele>1522</ele>
        <time>2011-06-26T14:51:29Z</time>
      </trkpt>
      <trkpt lat="45.10212" lon="5.59922">
        <ele>1522</ele>
        <time>2011-06-26T14:51:31Z</time>
      </trkpt>
      <trkpt lat="45.10218" lon="5.5992">
        <ele>1522</ele>
        <time>2011-06-26T14:51:33Z</time>
      </trkpt>
      <trkpt lat="45.10226" lon="5.59919">
        <ele>1523</ele>
        <time>2011-06-26T14:51:35Z</time>
      </trkpt>
      <trkpt lat="45.10231" lon="5.59917">
        <ele>1523</ele>
        <time>2011-06-26T14:51:36Z</time>
      </trkpt>
      <trkpt lat="45.10239" lon="5.59914">
        <ele>1522</ele>
        <time>2011-06-26T14:51:38Z</time>
      </trkpt>
      <trkpt lat="45.10253" lon="5.59913">
        <ele>1521</ele>
        <time>2011-06-26T14:51:41Z</time>
      </trkpt>
      <trkpt lat="45.10259" lon="5.59914">
        <ele>1520</ele>
        <time>2011-06-26T14:51:42Z</time>
      </trkpt>
      <trkpt lat="45.10265" lon="5.59914">
        <ele>1520</ele>
        <time>2011-06-26T14:51:43Z</time>
      </trkpt>
      <trkpt lat="45.1027" lon="5.59914">
        <ele>1520</ele>
        <time>2011-06-26T14:51:44Z</time>
      </trkpt>
      <trkpt lat="45.10282" lon="5.59913">
        <ele>1520</ele>
        <time>2011-06-26T14:51:46Z</time>
      </trkpt>
      <trkpt lat="45.10315" lon="5.59911">
        <ele>1520</ele>
        <time>2011-06-26T14:51:52Z</time>
      </trkpt>
      <trkpt lat="45.10322" lon="5.5991">
        <ele>1519</ele>
        <time>2011-06-26T14:51:53Z</time>
      </trkpt>
      <trkpt lat="45.10329" lon="5.5991">
        <ele>1520</ele>
        <time>2011-06-26T14:51:54Z</time>
      </trkpt>
      <trkpt lat="45.10335" lon="5.59908">
        <ele>1520</ele>
        <time>2011-06-26T14:51:55Z</time>
      </trkpt>
      <trkpt lat="45.1034" lon="5.59907">
        <ele>1520</ele>
        <time>2011-06-26T14:51:56Z</time>
      </trkpt>
      <trkpt lat="45.10347" lon="5.59905">
        <ele>1520</ele>
        <time>2011-06-26T14:51:58Z</time>
      </trkpt>
      <trkpt lat="45.10353" lon="5.59902">
        <ele>1521</ele>
        <time>2011-06-26T14:52:00Z</time>
      </trkpt>
      <trkpt lat="45.10359" lon="5.599">
        <ele>1520</ele>
        <time>2011-06-26T14:52:03Z</time>
      </trkpt>
      <trkpt lat="45.10364" lon="5.59901">
        <ele>1523</ele>
        <time>2011-06-26T14:52:07Z</time>
      </trkpt>
      <trkpt lat="45.1037" lon="5.59902">
        <ele>1523</ele>
        <time>2011-06-26T14:52:10Z</time>
      </trkpt>
      <trkpt lat="45.10377" lon="5.59901">
        <ele>1524</ele>
        <time>2011-06-26T14:52:14Z</time>
      </trkpt>
      <trkpt lat="45.10382" lon="5.59901">
        <ele>1524</ele>
        <time>2011-06-26T14:52:17Z</time>
      </trkpt>
      <trkpt lat="45.10388" lon="5.599">
        <ele>1525</ele>
        <time>2011-06-26T14:52:20Z</time>
      </trkpt>
      <trkpt lat="45.10393" lon="5.59897">
        <ele>1524</ele>
        <time>2011-06-26T14:52:22Z</time>
      </trkpt>
      <trkpt lat="45.10397" lon="5.59894">
        <ele>1524</ele>
        <time>2011-06-26T14:52:24Z</time>
      </trkpt>
      <trkpt lat="45.10404" lon="5.59892">
        <ele>1524</ele>
        <time>2011-06-26T14:52:27Z</time>
      </trkpt>
      <trkpt lat="45.10408" lon="5.5989">
        <ele>1525</ele>
        <time>2011-06-26T14:52:29Z</time>
      </trkpt>
      <trkpt lat="45.10415" lon="5.59889">
        <ele>1524</ele>
        <time>2011-06-26T14:52:31Z</time>
      </trkpt>
      <trkpt lat="45.10422" lon="5.59883">
        <ele>1524</ele>
        <time>2011-06-26T14:52:33Z</time>
      </trkpt>
      <trkpt lat="45.10429" lon="5.59881">
        <ele>1523</ele>
        <time>2011-06-26T14:52:35Z</time>
      </trkpt>
      <trkpt lat="45.10435" lon="5.59876">
        <ele>1523</ele>
        <time>2011-06-26T14:52:37Z</time>
      </trkpt>
      <trkpt lat="45.10451" lon="5.5987">
        <ele>1522</ele>
        <time>2011-06-26T14:52:41Z</time>
      </trkpt>
      <trkpt lat="45.1046" lon="5.5987">
        <ele>1521</ele>
        <time>2011-06-26T14:52:43Z</time>
      </trkpt>
      <trkpt lat="45.10465" lon="5.59869">
        <ele>1521</ele>
        <time>2011-06-26T14:52:44Z</time>
      </trkpt>
      <trkpt lat="45.10472" lon="5.59867">
        <ele>1521</ele>
        <time>2011-06-26T14:52:46Z</time>
      </trkpt>
      <trkpt lat="45.10478" lon="5.59866">
        <ele>1521</ele>
        <time>2011-06-26T14:52:48Z</time>
      </trkpt>
      <trkpt lat="45.10483" lon="5.59866">
        <ele>1522</ele>
        <time>2011-06-26T14:52:49Z</time>
      </trkpt>
      <trkpt lat="45.10492" lon="5.59865">
        <ele>1523</ele>
        <time>2011-06-26T14:52:51Z</time>
      </trkpt>
      <trkpt lat="45.10496" lon="5.59867">
        <ele>1523</ele>
        <time>2011-06-26T14:52:52Z</time>
      </trkpt>
      <trkpt lat="45.10504" lon="5.59869">
        <ele>1523</ele>
        <time>2011-06-26T14:52:54Z</time>
      </trkpt>
      <trkpt lat="45.10512" lon="5.59869">
        <ele>1523</ele>
        <time>2011-06-26T14:52:56Z</time>
      </trkpt>
      <trkpt lat="45.10516" lon="5.5987">
        <ele>1523</ele>
        <time>2011-06-26T14:52:57Z</time>
      </trkpt>
      <trkpt lat="45.10524" lon="5.59876">
        <ele>1523</ele>
        <time>2011-06-26T14:52:59Z</time>
      </trkpt>
      <trkpt lat="45.1053" lon="5.59879">
        <ele>1524</ele>
        <time>2011-06-26T14:53:00Z</time>
      </trkpt>
      <trkpt lat="45.10535" lon="5.59879">
        <ele>1524</ele>
        <time>2011-06-26T14:53:01Z</time>
      </trkpt>
      <trkpt lat="45.10544" lon="5.59878">
        <ele>1524</ele>
        <time>2011-06-26T14:53:03Z</time>
      </trkpt>
      <trkpt lat="45.1055" lon="5.59878">
        <ele>1524</ele>
        <time>2011-06-26T14:53:04Z</time>
      </trkpt>
      <trkpt lat="45.10556" lon="5.59877">
        <ele>1523</ele>
        <time>2011-06-26T14:53:06Z</time>
      </trkpt>
      <trkpt lat="45.10561" lon="5.59876">
        <ele>1523</ele>
        <time>2011-06-26T14:53:08Z</time>
      </trkpt>
      <trkpt lat="45.10567" lon="5.59876">
        <ele>1523</ele>
        <time>2011-06-26T14:53:10Z</time>
      </trkpt>
      <trkpt lat="45.10573" lon="5.59876">
        <ele>1523</ele>
        <time>2011-06-26T14:53:12Z</time>
      </trkpt>
      <trkpt lat="45.1058" lon="5.59878">
        <ele>1524</ele>
        <time>2011-06-26T14:53:14Z</time>
      </trkpt>
      <trkpt lat="45.10586" lon="5.59878">
        <ele>1523</ele>
        <time>2011-06-26T14:53:17Z</time>
      </trkpt>
      <trkpt lat="45.10591" lon="5.59878">
        <ele>1525</ele>
        <time>2011-06-26T14:53:27Z</time>
      </trkpt>
      <trkpt lat="45.10595" lon="5.5988">
        <ele>1525</ele>
        <time>2011-06-26T14:53:31Z</time>
      </trkpt>
      <trkpt lat="45.10601" lon="5.5988">
        <ele>1527</ele>
        <time>2011-06-26T14:53:34Z</time>
      </trkpt>
      <trkpt lat="45.10607" lon="5.59885">
        <ele>1526</ele>
        <time>2011-06-26T14:53:37Z</time>
      </trkpt>
      <trkpt lat="45.1062" lon="5.59886">
        <ele>1524</ele>
        <time>2011-06-26T14:53:40Z</time>
      </trkpt>
      <trkpt lat="45.10627" lon="5.5989">
        <ele>1525</ele>
        <time>2011-06-26T14:53:42Z</time>
      </trkpt>
      <trkpt lat="45.10636" lon="5.5989">
        <ele>1525</ele>
        <time>2011-06-26T14:53:44Z</time>
      </trkpt>
      <trkpt lat="45.10643" lon="5.59892">
        <ele>1525</ele>
        <time>2011-06-26T14:53:46Z</time>
      </trkpt>
      <trkpt lat="45.10652" lon="5.59893">
        <ele>1524</ele>
        <time>2011-06-26T14:53:48Z</time>
      </trkpt>
      <trkpt lat="45.10657" lon="5.59893">
        <ele>1524</ele>
        <time>2011-06-26T14:53:49Z</time>
      </trkpt>
      <trkpt lat="45.10662" lon="5.59895">
        <ele>1524</ele>
        <time>2011-06-26T14:53:50Z</time>
      </trkpt>
      <trkpt lat="45.10667" lon="5.59894">
        <ele>1523</ele>
        <time>2011-06-26T14:53:51Z</time>
      </trkpt>
      <trkpt lat="45.10674" lon="5.59895">
        <ele>1523</ele>
        <time>2011-06-26T14:53:53Z</time>
      </trkpt>
      <trkpt lat="45.10678" lon="5.59896">
        <ele>1524</ele>
        <time>2011-06-26T14:53:56Z</time>
      </trkpt>
      <trkpt lat="45.10682" lon="5.599">
        <ele>1523</ele>
        <time>2011-06-26T14:54:20Z</time>
      </trkpt>
      <trkpt lat="45.10688" lon="5.59901">
        <ele>1523</ele>
        <time>2011-06-26T14:54:22Z</time>
      </trkpt>
      <trkpt lat="45.10693" lon="5.59903">
        <ele>1524</ele>
        <time>2011-06-26T14:54:25Z</time>
      </trkpt>
      <trkpt lat="45.10698" lon="5.59906">
        <ele>1524</ele>
        <time>2011-06-26T14:54:27Z</time>
      </trkpt>
      <trkpt lat="45.10703" lon="5.59908">
        <ele>1523</ele>
        <time>2011-06-26T14:54:29Z</time>
      </trkpt>
      <trkpt lat="45.1071" lon="5.5991">
        <ele>1523</ele>
        <time>2011-06-26T14:54:31Z</time>
      </trkpt>
      <trkpt lat="45.10715" lon="5.59911">
        <ele>1522</ele>
        <time>2011-06-26T14:54:33Z</time>
      </trkpt>
      <trkpt lat="45.1072" lon="5.59912">
        <ele>1522</ele>
        <time>2011-06-26T14:54:35Z</time>
      </trkpt>
      <trkpt lat="45.10727" lon="5.59915">
        <ele>1521</ele>
        <time>2011-06-26T14:54:37Z</time>
      </trkpt>
      <trkpt lat="45.10736" lon="5.59922">
        <ele>1519</ele>
        <time>2011-06-26T14:54:41Z</time>
      </trkpt>
      <trkpt lat="45.10741" lon="5.59924">
        <ele>1518</ele>
        <time>2011-06-26T14:54:42Z</time>
      </trkpt>
      <trkpt lat="45.10746" lon="5.59926">
        <ele>1516</ele>
        <time>2011-06-26T14:54:45Z</time>
      </trkpt>
      <trkpt lat="45.10754" lon="5.59931">
        <ele>1516</ele>
        <time>2011-06-26T14:54:48Z</time>
      </trkpt>
      <trkpt lat="45.1076" lon="5.59934">
        <ele>1515</ele>
        <time>2011-06-26T14:54:50Z</time>
      </trkpt>
      <trkpt lat="45.10764" lon="5.59938">
        <ele>1515</ele>
        <time>2011-06-26T14:54:52Z</time>
      </trkpt>
      <trkpt lat="45.10767" lon="5.59944">
        <ele>1514</ele>
        <time>2011-06-26T14:54:54Z</time>
      </trkpt>
      <trkpt lat="45.10772" lon="5.59948">
        <ele>1513</ele>
        <time>2011-06-26T14:54:55Z</time>
      </trkpt>
      <trkpt lat="45.10777" lon="5.59952">
        <ele>1512</ele>
        <time>2011-06-26T14:54:57Z</time>
      </trkpt>
      <trkpt lat="45.10781" lon="5.59957">
        <ele>1512</ele>
        <time>2011-06-26T14:54:59Z</time>
      </trkpt>
      <trkpt lat="45.10786" lon="5.59957">
        <ele>1511</ele>
        <time>2011-06-26T14:55:02Z</time>
      </trkpt>
      <trkpt lat="45.1079" lon="5.59958">
        <ele>1510</ele>
        <time>2011-06-26T14:55:04Z</time>
      </trkpt>
      <trkpt lat="45.10794" lon="5.59956">
        <ele>1509</ele>
        <time>2011-06-26T14:55:09Z</time>
      </trkpt>
      <trkpt lat="45.10796" lon="5.59948">
        <ele>1509</ele>
        <time>2011-06-26T14:55:12Z</time>
      </trkpt>
      <trkpt lat="45.10796" lon="5.59948">
        <ele>1509</ele>
        <time>2011-06-26T14:55:12Z</time>
      </trkpt>
      <trkpt lat="45.10796" lon="5.59948">
        <ele>1510</ele>
        <time>2011-06-26T14:55:13Z</time>
      </trkpt>
      <trkpt lat="45.10798" lon="5.59941">
        <ele>1509</ele>
        <time>2011-06-26T14:55:18Z</time>
      </trkpt>
      <trkpt lat="45.10796" lon="5.59934">
        <ele>1507</ele>
        <time>2011-06-26T14:55:24Z</time>
      </trkpt>
      <trkpt lat="45.10794" lon="5.59926">
        <ele>1505</ele>
        <time>2011-06-26T14:55:27Z</time>
      </trkpt>
      <trkpt lat="45.10794" lon="5.59926">
        <ele>1505</ele>
        <time>2011-06-26T14:55:27Z</time>
      </trkpt>
      <trkpt lat="45.10794" lon="5.59926">
        <ele>1505</ele>
        <time>2011-06-26T14:55:35Z</time>
      </trkpt>
      <trkpt lat="45.10792" lon="5.59919">
        <ele>1503</ele>
        <time>2011-06-26T14:55:52Z</time>
      </trkpt>
      <trkpt lat="45.10792" lon="5.59911">
        <ele>1502</ele>
        <time>2011-06-26T14:55:55Z</time>
      </trkpt>
      <trkpt lat="45.10788" lon="5.59901">
        <ele>1501</ele>
        <time>2011-06-26T14:55:57Z</time>
      </trkpt>
      <trkpt lat="45.10788" lon="5.59895">
        <ele>1500</ele>
        <time>2011-06-26T14:56:00Z</time>
      </trkpt>
      <trkpt lat="45.1079" lon="5.59885">
        <ele>1499</ele>
        <time>2011-06-26T14:56:10Z</time>
      </trkpt>
      <trkpt lat="45.10794" lon="5.5988">
        <ele>1500</ele>
        <time>2011-06-26T14:56:12Z</time>
      </trkpt>
      <trkpt lat="45.10801" lon="5.59877">
        <ele>1500</ele>
        <time>2011-06-26T14:56:13Z</time>
      </trkpt>
      <trkpt lat="45.10799" lon="5.59869">
        <ele>1500</ele>
        <time>2011-06-26T14:56:16Z</time>
      </trkpt>
      <trkpt lat="45.10798" lon="5.59861">
        <ele>1499</ele>
        <time>2011-06-26T14:56:20Z</time>
      </trkpt>
      <trkpt lat="45.10799" lon="5.59854">
        <ele>1499</ele>
        <time>2011-06-26T14:56:22Z</time>
      </trkpt>
      <trkpt lat="45.10795" lon="5.59848">
        <ele>1499</ele>
        <time>2011-06-26T14:56:24Z</time>
      </trkpt>
      <trkpt lat="45.10798" lon="5.59842">
        <ele>1499</ele>
        <time>2011-06-26T14:56:27Z</time>
      </trkpt>
      <trkpt lat="45.10796" lon="5.59833">
        <ele>1498</ele>
        <time>2011-06-26T14:56:29Z</time>
      </trkpt>
      <trkpt lat="45.10798" lon="5.59826">
        <ele>1499</ele>
        <time>2011-06-26T14:56:32Z</time>
      </trkpt>
      <trkpt lat="45.10818" lon="5.59821">
        <ele>1498</ele>
        <time>2011-06-26T14:56:34Z</time>
      </trkpt>
      <trkpt lat="45.10816" lon="5.59815">
        <ele>1498</ele>
        <time>2011-06-26T14:56:37Z</time>
      </trkpt>
      <trkpt lat="45.10823" lon="5.59812">
        <ele>1497</ele>
        <time>2011-06-26T14:56:40Z</time>
      </trkpt>
      <trkpt lat="45.10829" lon="5.59811">
        <ele>1498</ele>
        <time>2011-06-26T14:56:43Z</time>
      </trkpt>
      <trkpt lat="45.10836" lon="5.59811">
        <ele>1498</ele>
        <time>2011-06-26T14:56:45Z</time>
      </trkpt>
      <trkpt lat="45.10844" lon="5.5981">
        <ele>1496</ele>
        <time>2011-06-26T14:56:47Z</time>
      </trkpt>
      <trkpt lat="45.10854" lon="5.59812">
        <ele>1495</ele>
        <time>2011-06-26T14:56:49Z</time>
      </trkpt>
      <trkpt lat="45.10861" lon="5.59812">
        <ele>1493</ele>
        <time>2011-06-26T14:56:50Z</time>
      </trkpt>
      <trkpt lat="45.10866" lon="5.5981">
        <ele>1492</ele>
        <time>2011-06-26T14:56:52Z</time>
      </trkpt>
      <trkpt lat="45.10873" lon="5.59809">
        <ele>1490</ele>
        <time>2011-06-26T14:56:54Z</time>
      </trkpt>
      <trkpt lat="45.1088" lon="5.59808">
        <ele>1491</ele>
        <time>2011-06-26T14:56:56Z</time>
      </trkpt>
      <trkpt lat="45.10884" lon="5.59806">
        <ele>1490</ele>
        <time>2011-06-26T14:56:57Z</time>
      </trkpt>
      <trkpt lat="45.10891" lon="5.59802">
        <ele>1488</ele>
        <time>2011-06-26T14:56:59Z</time>
      </trkpt>
      <trkpt lat="45.10894" lon="5.59796">
        <ele>1487</ele>
        <time>2011-06-26T14:57:02Z</time>
      </trkpt>
      <trkpt lat="45.10902" lon="5.59795">
        <ele>1487</ele>
        <time>2011-06-26T14:57:04Z</time>
      </trkpt>
      <trkpt lat="45.10906" lon="5.59795">
        <ele>1486</ele>
        <time>2011-06-26T14:57:06Z</time>
      </trkpt>
      <trkpt lat="45.10911" lon="5.5979">
        <ele>1481</ele>
        <time>2011-06-26T14:57:11Z</time>
      </trkpt>
      <trkpt lat="45.10914" lon="5.59794">
        <ele>1478</ele>
        <time>2011-06-26T14:57:14Z</time>
      </trkpt>
      <trkpt lat="45.10917" lon="5.598">
        <ele>1477</ele>
        <time>2011-06-26T14:57:18Z</time>
      </trkpt>
      <trkpt lat="45.10922" lon="5.59809">
        <ele>1475</ele>
        <time>2011-06-26T14:57:23Z</time>
      </trkpt>
      <trkpt lat="45.10926" lon="5.59811">
        <ele>1474</ele>
        <time>2011-06-26T14:57:25Z</time>
      </trkpt>
      <trkpt lat="45.10931" lon="5.59813">
        <ele>1473</ele>
        <time>2011-06-26T14:57:26Z</time>
      </trkpt>
      <trkpt lat="45.10937" lon="5.59816">
        <ele>1471</ele>
        <time>2011-06-26T14:57:27Z</time>
      </trkpt>
      <trkpt lat="45.10944" lon="5.59818">
        <ele>1470</ele>
        <time>2011-06-26T14:57:30Z</time>
      </trkpt>
      <trkpt lat="45.10948" lon="5.59823">
        <ele>1469</ele>
        <time>2011-06-26T14:57:32Z</time>
      </trkpt>
      <trkpt lat="45.10952" lon="5.59828">
        <ele>1470</ele>
        <time>2011-06-26T14:57:34Z</time>
      </trkpt>
      <trkpt lat="45.10951" lon="5.59836">
        <ele>1469</ele>
        <time>2011-06-26T14:57:38Z</time>
      </trkpt>
      <trkpt lat="45.10951" lon="5.59843">
        <ele>1468</ele>
        <time>2011-06-26T14:57:41Z</time>
      </trkpt>
      <trkpt lat="45.10957" lon="5.59847">
        <ele>1467</ele>
        <time>2011-06-26T14:57:44Z</time>
      </trkpt>
      <trkpt lat="45.1096" lon="5.59852">
        <ele>1463</ele>
        <time>2011-06-26T14:57:47Z</time>
      </trkpt>
      <trkpt lat="45.10965" lon="5.59854">
        <ele>1462</ele>
        <time>2011-06-26T14:57:49Z</time>
      </trkpt>
      <trkpt lat="45.10973" lon="5.59854">
        <ele>1459</ele>
        <time>2011-06-26T14:57:52Z</time>
      </trkpt>
      <trkpt lat="45.10978" lon="5.59857">
        <ele>1457</ele>
        <time>2011-06-26T14:57:53Z</time>
      </trkpt>
      <trkpt lat="45.10982" lon="5.59855">
        <ele>1455</ele>
        <time>2011-06-26T14:57:55Z</time>
      </trkpt>
      <trkpt lat="45.10987" lon="5.59861">
        <ele>1454</ele>
        <time>2011-06-26T14:57:58Z</time>
      </trkpt>
      <trkpt lat="45.10991" lon="5.59871">
        <ele>1453</ele>
        <time>2011-06-26T14:58:01Z</time>
      </trkpt>
      <trkpt lat="45.1099" lon="5.59878">
        <ele>1453</ele>
        <time>2011-06-26T14:58:03Z</time>
      </trkpt>
      <trkpt lat="45.10993" lon="5.59883">
        <ele>1452</ele>
        <time>2011-06-26T14:58:05Z</time>
      </trkpt>
      <trkpt lat="45.11002" lon="5.59888">
        <ele>1448</ele>
        <time>2011-06-26T14:58:07Z</time>
      </trkpt>
      <trkpt lat="45.11006" lon="5.59891">
        <ele>1447</ele>
        <time>2011-06-26T14:58:08Z</time>
      </trkpt>
      <trkpt lat="45.11012" lon="5.59888">
        <ele>1445</ele>
        <time>2011-06-26T14:58:10Z</time>
      </trkpt>
      <trkpt lat="45.11016" lon="5.59887">
        <ele>1443</ele>
        <time>2011-06-26T14:58:12Z</time>
      </trkpt>
      <trkpt lat="45.11025" lon="5.59889">
        <ele>1439</ele>
        <time>2011-06-26T14:58:14Z</time>
      </trkpt>
      <trkpt lat="45.1103" lon="5.5989">
        <ele>1438</ele>
        <time>2011-06-26T14:58:16Z</time>
      </trkpt>
      <trkpt lat="45.11037" lon="5.5989">
        <ele>1437</ele>
        <time>2011-06-26T14:58:18Z</time>
      </trkpt>
      <trkpt lat="45.11042" lon="5.59893">
        <ele>1436</ele>
        <time>2011-06-26T14:58:20Z</time>
      </trkpt>
      <trkpt lat="45.11047" lon="5.59892">
        <ele>1433</ele>
        <time>2011-06-26T14:58:22Z</time>
      </trkpt>
      <trkpt lat="45.11052" lon="5.5989">
        <ele>1432</ele>
        <time>2011-06-26T14:58:25Z</time>
      </trkpt>
      <trkpt lat="45.11057" lon="5.59894">
        <ele>1430</ele>
        <time>2011-06-26T14:58:27Z</time>
      </trkpt>
      <trkpt lat="45.11062" lon="5.59902">
        <ele>1427</ele>
        <time>2011-06-26T14:58:29Z</time>
      </trkpt>
      <trkpt lat="45.11067" lon="5.59906">
        <ele>1426</ele>
        <time>2011-06-26T14:58:31Z</time>
      </trkpt>
      <trkpt lat="45.11072" lon="5.59907">
        <ele>1425</ele>
        <time>2011-06-26T14:58:32Z</time>
      </trkpt>
      <trkpt lat="45.1108" lon="5.59911">
        <ele>1424</ele>
        <time>2011-06-26T14:58:34Z</time>
      </trkpt>
      <trkpt lat="45.11086" lon="5.59915">
        <ele>1424</ele>
        <time>2011-06-26T14:58:36Z</time>
      </trkpt>
      <trkpt lat="45.11092" lon="5.59916">
        <ele>1421</ele>
        <time>2011-06-26T14:58:38Z</time>
      </trkpt>
      <trkpt lat="45.11105" lon="5.59921">
        <ele>1418</ele>
        <time>2011-06-26T14:58:41Z</time>
      </trkpt>
      <trkpt lat="45.11112" lon="5.59923">
        <ele>1416</ele>
        <time>2011-06-26T14:58:42Z</time>
      </trkpt>
      <trkpt lat="45.1112" lon="5.59922">
        <ele>1415</ele>
        <time>2011-06-26T14:58:44Z</time>
      </trkpt>
      <trkpt lat="45.11128" lon="5.59922">
        <ele>1413</ele>
        <time>2011-06-26T14:58:46Z</time>
      </trkpt>
      <trkpt lat="45.11135" lon="5.59923">
        <ele>1413</ele>
        <time>2011-06-26T14:58:47Z</time>
      </trkpt>
      <trkpt lat="45.11142" lon="5.59925">
        <ele>1413</ele>
        <time>2011-06-26T14:58:48Z</time>
      </trkpt>
      <trkpt lat="45.11148" lon="5.59928">
        <ele>1411</ele>
        <time>2011-06-26T14:58:50Z</time>
      </trkpt>
      <trkpt lat="45.11154" lon="5.59929">
        <ele>1406</ele>
        <time>2011-06-26T14:58:55Z</time>
      </trkpt>
      <trkpt lat="45.11158" lon="5.59924">
        <ele>1403</ele>
        <time>2011-06-26T14:58:58Z</time>
      </trkpt>
      <trkpt lat="45.11164" lon="5.59921">
        <ele>1403</ele>
        <time>2011-06-26T14:59:01Z</time>
      </trkpt>
      <trkpt lat="45.11169" lon="5.59917">
        <ele>1401</ele>
        <time>2011-06-26T14:59:03Z</time>
      </trkpt>
      <trkpt lat="45.1117" lon="5.5991">
        <ele>1399</ele>
        <time>2011-06-26T14:59:05Z</time>
      </trkpt>
      <trkpt lat="45.11172" lon="5.59902">
        <ele>1396</ele>
        <time>2011-06-26T14:59:08Z</time>
      </trkpt>
      <trkpt lat="45.11175" lon="5.59897">
        <ele>1394</ele>
        <time>2011-06-26T14:59:11Z</time>
      </trkpt>
      <trkpt lat="45.11179" lon="5.59892">
        <ele>1393</ele>
        <time>2011-06-26T14:59:14Z</time>
      </trkpt>
      <trkpt lat="45.11183" lon="5.59888">
        <ele>1391</ele>
        <time>2011-06-26T14:59:17Z</time>
      </trkpt>
      <trkpt lat="45.11188" lon="5.59886">
        <ele>1389</ele>
        <time>2011-06-26T14:59:20Z</time>
      </trkpt>
      <trkpt lat="45.11194" lon="5.59886">
        <ele>1387</ele>
        <time>2011-06-26T14:59:22Z</time>
      </trkpt>
      <trkpt lat="45.11199" lon="5.59883">
        <ele>1387</ele>
        <time>2011-06-26T14:59:24Z</time>
      </trkpt>
      <trkpt lat="45.11205" lon="5.59874">
        <ele>1383</ele>
        <time>2011-06-26T14:59:26Z</time>
      </trkpt>
      <trkpt lat="45.11209" lon="5.59868">
        <ele>1380</ele>
        <time>2011-06-26T14:59:28Z</time>
      </trkpt>
      <trkpt lat="45.11214" lon="5.5987">
        <ele>1376</ele>
        <time>2011-06-26T14:59:33Z</time>
      </trkpt>
      <trkpt lat="45.1122" lon="5.5987">
        <ele>1375</ele>
        <time>2011-06-26T14:59:35Z</time>
      </trkpt>
      <trkpt lat="45.11222" lon="5.59864">
        <ele>1373</ele>
        <time>2011-06-26T14:59:40Z</time>
      </trkpt>
      <trkpt lat="45.11225" lon="5.5987">
        <ele>1371</ele>
        <time>2011-06-26T14:59:52Z</time>
      </trkpt>
      <trkpt lat="45.11226" lon="5.59879">
        <ele>1371</ele>
        <time>2011-06-26T14:59:54Z</time>
      </trkpt>
      <trkpt lat="45.11232" lon="5.59887">
        <ele>1369</ele>
        <time>2011-06-26T14:59:55Z</time>
      </trkpt>
      <trkpt lat="45.1124" lon="5.59891">
        <ele>1368</ele>
        <time>2011-06-26T14:59:57Z</time>
      </trkpt>
      <trkpt lat="45.11244" lon="5.59892">
        <ele>1369</ele>
        <time>2011-06-26T14:59:59Z</time>
      </trkpt>
      <trkpt lat="45.11248" lon="5.59898">
        <ele>1369</ele>
        <time>2011-06-26T15:00:01Z</time>
      </trkpt>
      <trkpt lat="45.1125" lon="5.59908">
        <ele>1366</ele>
        <time>2011-06-26T15:00:04Z</time>
      </trkpt>
      <trkpt lat="45.11259" lon="5.59914">
        <ele>1366</ele>
        <time>2011-06-26T15:00:06Z</time>
      </trkpt>
      <trkpt lat="45.11264" lon="5.59916">
        <ele>1366</ele>
        <time>2011-06-26T15:00:07Z</time>
      </trkpt>
      <trkpt lat="45.11281" lon="5.59927">
        <ele>1362</ele>
        <time>2011-06-26T15:00:10Z</time>
      </trkpt>
      <trkpt lat="45.11286" lon="5.59929">
        <ele>1360</ele>
        <time>2011-06-26T15:00:11Z</time>
      </trkpt>
      <trkpt lat="45.11292" lon="5.5993">
        <ele>1360</ele>
        <time>2011-06-26T15:00:13Z</time>
      </trkpt>
      <trkpt lat="45.11297" lon="5.59932">
        <ele>1359</ele>
        <time>2011-06-26T15:00:14Z</time>
      </trkpt>
      <trkpt lat="45.11304" lon="5.59934">
        <ele>1357</ele>
        <time>2011-06-26T15:00:16Z</time>
      </trkpt>
      <trkpt lat="45.11312" lon="5.59934">
        <ele>1355</ele>
        <time>2011-06-26T15:00:18Z</time>
      </trkpt>
      <trkpt lat="45.11318" lon="5.59934">
        <ele>1354</ele>
        <time>2011-06-26T15:00:20Z</time>
      </trkpt>
      <trkpt lat="45.1132" lon="5.59928">
        <ele>1350</ele>
        <time>2011-06-26T15:00:30Z</time>
      </trkpt>
      <trkpt lat="45.11325" lon="5.59927">
        <ele>1349</ele>
        <time>2011-06-26T15:00:34Z</time>
      </trkpt>
      <trkpt lat="45.1133" lon="5.59927">
        <ele>1348</ele>
        <time>2011-06-26T15:00:37Z</time>
      </trkpt>
      <trkpt lat="45.11337" lon="5.5993">
        <ele>1345</ele>
        <time>2011-06-26T15:00:41Z</time>
      </trkpt>
      <trkpt lat="45.11342" lon="5.59929">
        <ele>1345</ele>
        <time>2011-06-26T15:00:43Z</time>
      </trkpt>
      <trkpt lat="45.11347" lon="5.59932">
        <ele>1343</ele>
        <time>2011-06-26T15:00:45Z</time>
      </trkpt>
      <trkpt lat="45.11352" lon="5.59929">
        <ele>1342</ele>
        <time>2011-06-26T15:00:48Z</time>
      </trkpt>
      <trkpt lat="45.11444" lon="5.59913">
        <ele>1312</ele>
        <time>2011-06-26T15:04:32Z</time>
      </trkpt>
      <trkpt lat="45.11468" lon="5.59909">
        <ele>1316</ele>
        <time>2011-06-26T15:04:39Z</time>
      </trkpt>
      <trkpt lat="45.11475" lon="5.59903">
        <ele>1313</ele>
        <time>2011-06-26T15:04:41Z</time>
      </trkpt>
      <trkpt lat="45.1148" lon="5.59901">
        <ele>1313</ele>
        <time>2011-06-26T15:04:43Z</time>
      </trkpt>
      <trkpt lat="45.11485" lon="5.59898">
        <ele>1313</ele>
        <time>2011-06-26T15:04:45Z</time>
      </trkpt>
      <trkpt lat="45.11491" lon="5.59895">
        <ele>1313</ele>
        <time>2011-06-26T15:04:48Z</time>
      </trkpt>
      <trkpt lat="45.11498" lon="5.5989">
        <ele>1314</ele>
        <time>2011-06-26T15:04:50Z</time>
      </trkpt>
      <trkpt lat="45.11504" lon="5.59887">
        <ele>1313</ele>
        <time>2011-06-26T15:04:52Z</time>
      </trkpt>
      <trkpt lat="45.11509" lon="5.59885">
        <ele>1312</ele>
        <time>2011-06-26T15:04:54Z</time>
      </trkpt>
      <trkpt lat="45.11514" lon="5.59882">
        <ele>1312</ele>
        <time>2011-06-26T15:04:57Z</time>
      </trkpt>
      <trkpt lat="45.1152" lon="5.5988">
        <ele>1313</ele>
        <time>2011-06-26T15:05:10Z</time>
      </trkpt>
      <trkpt lat="45.11526" lon="5.5988">
        <ele>1314</ele>
        <time>2011-06-26T15:05:12Z</time>
      </trkpt>
      <trkpt lat="45.11531" lon="5.59878">
        <ele>1313</ele>
        <time>2011-06-26T15:05:15Z</time>
      </trkpt>
      <trkpt lat="45.11536" lon="5.59878">
        <ele>1313</ele>
        <time>2011-06-26T15:05:17Z</time>
      </trkpt>
      <trkpt lat="45.1154" lon="5.59878">
        <ele>1314</ele>
        <time>2011-06-26T15:05:19Z</time>
      </trkpt>
      <trkpt lat="45.11546" lon="5.59875">
        <ele>1313</ele>
        <time>2011-06-26T15:05:21Z</time>
      </trkpt>
      <trkpt lat="45.11552" lon="5.59875">
        <ele>1314</ele>
        <time>2011-06-26T15:05:23Z</time>
      </trkpt>
      <trkpt lat="45.11557" lon="5.59875">
        <ele>1313</ele>
        <time>2011-06-26T15:05:25Z</time>
      </trkpt>
      <trkpt lat="45.11562" lon="5.59874">
        <ele>1312</ele>
        <time>2011-06-26T15:05:27Z</time>
      </trkpt>
      <trkpt lat="45.11567" lon="5.59873">
        <ele>1313</ele>
        <time>2011-06-26T15:05:29Z</time>
      </trkpt>
      <trkpt lat="45.11572" lon="5.59871">
        <ele>1313</ele>
        <time>2011-06-26T15:05:31Z</time>
      </trkpt>
      <trkpt lat="45.11577" lon="5.59871">
        <ele>1313</ele>
        <time>2011-06-26T15:05:33Z</time>
      </trkpt>
      <trkpt lat="45.11582" lon="5.59871">
        <ele>1314</ele>
        <time>2011-06-26T15:05:35Z</time>
      </trkpt>
      <trkpt lat="45.11587" lon="5.59869">
        <ele>1314</ele>
        <time>2011-06-26T15:05:37Z</time>
      </trkpt>
      <trkpt lat="45.1159" lon="5.59865">
        <ele>1315</ele>
        <time>2011-06-26T15:05:39Z</time>
      </trkpt>
      <trkpt lat="45.11597" lon="5.59862">
        <ele>1315</ele>
        <time>2011-06-26T15:05:42Z</time>
      </trkpt>
      <trkpt lat="45.11603" lon="5.5986">
        <ele>1317</ele>
        <time>2011-06-26T15:05:45Z</time>
      </trkpt>
      <trkpt lat="45.11608" lon="5.59859">
        <ele>1317</ele>
        <time>2011-06-26T15:05:47Z</time>
      </trkpt>
      <trkpt lat="45.11613" lon="5.59856">
        <ele>1317</ele>
        <time>2011-06-26T15:05:50Z</time>
      </trkpt>
      <trkpt lat="45.11619" lon="5.59854">
        <ele>1318</ele>
        <time>2011-06-26T15:05:53Z</time>
      </trkpt>
      <trkpt lat="45.11624" lon="5.59853">
        <ele>1318</ele>
        <time>2011-06-26T15:05:56Z</time>
      </trkpt>
      <trkpt lat="45.11629" lon="5.5985">
        <ele>1319</ele>
        <time>2011-06-26T15:05:59Z</time>
      </trkpt>
      <trkpt lat="45.11635" lon="5.59848">
        <ele>1321</ele>
        <time>2011-06-26T15:06:02Z</time>
      </trkpt>
      <trkpt lat="45.11641" lon="5.59847">
        <ele>1322</ele>
        <time>2011-06-26T15:06:05Z</time>
      </trkpt>
      <trkpt lat="45.11646" lon="5.59845">
        <ele>1323</ele>
        <time>2011-06-26T15:06:08Z</time>
      </trkpt>
      <trkpt lat="45.11651" lon="5.59841">
        <ele>1323</ele>
        <time>2011-06-26T15:06:11Z</time>
      </trkpt>
      <trkpt lat="45.11657" lon="5.5984">
        <ele>1324</ele>
        <time>2011-06-26T15:06:14Z</time>
      </trkpt>
      <trkpt lat="45.11663" lon="5.59838">
        <ele>1323</ele>
        <time>2011-06-26T15:06:17Z</time>
      </trkpt>
      <trkpt lat="45.11668" lon="5.59838">
        <ele>1325</ele>
        <time>2011-06-26T15:06:20Z</time>
      </trkpt>
      <trkpt lat="45.11674" lon="5.59836">
        <ele>1325</ele>
        <time>2011-06-26T15:06:23Z</time>
      </trkpt>
      <trkpt lat="45.11679" lon="5.59834">
        <ele>1326</ele>
        <time>2011-06-26T15:06:26Z</time>
      </trkpt>
      <trkpt lat="45.11684" lon="5.59833">
        <ele>1326</ele>
        <time>2011-06-26T15:06:29Z</time>
      </trkpt>
      <trkpt lat="45.11689" lon="5.59832">
        <ele>1327</ele>
        <time>2011-06-26T15:06:32Z</time>
      </trkpt>
      <trkpt lat="45.11694" lon="5.59829">
        <ele>1327</ele>
        <time>2011-06-26T15:06:35Z</time>
      </trkpt>
      <trkpt lat="45.11699" lon="5.59825">
        <ele>1327</ele>
        <time>2011-06-26T15:06:38Z</time>
      </trkpt>
      <trkpt lat="45.11702" lon="5.5982">
        <ele>1327</ele>
        <time>2011-06-26T15:06:41Z</time>
      </trkpt>
      <trkpt lat="45.11707" lon="5.59817">
        <ele>1328</ele>
        <time>2011-06-26T15:06:44Z</time>
      </trkpt>
      <trkpt lat="45.11713" lon="5.59816">
        <ele>1329</ele>
        <time>2011-06-26T15:06:47Z</time>
      </trkpt>
      <trkpt lat="45.1172" lon="5.59816">
        <ele>1327</ele>
        <time>2011-06-26T15:06:50Z</time>
      </trkpt>
      <trkpt lat="45.11726" lon="5.59819">
        <ele>1326</ele>
        <time>2011-06-26T15:06:53Z</time>
      </trkpt>
      <trkpt lat="45.11731" lon="5.59822">
        <ele>1327</ele>
        <time>2011-06-26T15:06:56Z</time>
      </trkpt>
      <trkpt lat="45.11737" lon="5.59824">
        <ele>1327</ele>
        <time>2011-06-26T15:06:59Z</time>
      </trkpt>
      <trkpt lat="45.11743" lon="5.59824">
        <ele>1326</ele>
        <time>2011-06-26T15:07:02Z</time>
      </trkpt>
      <trkpt lat="45.11748" lon="5.59826">
        <ele>1327</ele>
        <time>2011-06-26T15:07:04Z</time>
      </trkpt>
      <trkpt lat="45.11755" lon="5.59825">
        <ele>1327</ele>
        <time>2011-06-26T15:07:07Z</time>
      </trkpt>
      <trkpt lat="45.11759" lon="5.59823">
        <ele>1327</ele>
        <time>2011-06-26T15:07:09Z</time>
      </trkpt>
      <trkpt lat="45.11765" lon="5.5982">
        <ele>1327</ele>
        <time>2011-06-26T15:07:11Z</time>
      </trkpt>
      <trkpt lat="45.1177" lon="5.59818">
        <ele>1327</ele>
        <time>2011-06-26T15:07:13Z</time>
      </trkpt>
      <trkpt lat="45.11776" lon="5.59816">
        <ele>1328</ele>
        <time>2011-06-26T15:07:16Z</time>
      </trkpt>
      <trkpt lat="45.11782" lon="5.59814">
        <ele>1328</ele>
        <time>2011-06-26T15:07:19Z</time>
      </trkpt>
      <trkpt lat="45.11788" lon="5.5981">
        <ele>1327</ele>
        <time>2011-06-26T15:07:21Z</time>
      </trkpt>
      <trkpt lat="45.11794" lon="5.59809">
        <ele>1328</ele>
        <time>2011-06-26T15:07:23Z</time>
      </trkpt>
      <trkpt lat="45.11798" lon="5.59806">
        <ele>1328</ele>
        <time>2011-06-26T15:07:25Z</time>
      </trkpt>
      <trkpt lat="45.11803" lon="5.59798">
        <ele>1329</ele>
        <time>2011-06-26T15:07:28Z</time>
      </trkpt>
      <trkpt lat="45.11807" lon="5.59792">
        <ele>1329</ele>
        <time>2011-06-26T15:07:30Z</time>
      </trkpt>
      <trkpt lat="45.11813" lon="5.59792">
        <ele>1330</ele>
        <time>2011-06-26T15:07:32Z</time>
      </trkpt>
      <trkpt lat="45.11818" lon="5.59791">
        <ele>1330</ele>
        <time>2011-06-26T15:07:36Z</time>
      </trkpt>
      <trkpt lat="45.11818" lon="5.59791">
        <ele>1330</ele>
        <time>2011-06-26T15:07:36Z</time>
      </trkpt>
      <trkpt lat="45.11818" lon="5.59791">
        <ele>1331</ele>
        <time>2011-06-26T15:07:37Z</time>
      </trkpt>
      <trkpt lat="45.11819" lon="5.59784">
        <ele>1331</ele>
        <time>2011-06-26T15:07:42Z</time>
      </trkpt>
      <trkpt lat="45.11824" lon="5.59783">
        <ele>1333</ele>
        <time>2011-06-26T15:07:49Z</time>
      </trkpt>
      <trkpt lat="45.11828" lon="5.59785">
        <ele>1333</ele>
        <time>2011-06-26T15:07:51Z</time>
      </trkpt>
      <trkpt lat="45.11826" lon="5.59776">
        <ele>1334</ele>
        <time>2011-06-26T15:07:55Z</time>
      </trkpt>
      <trkpt lat="45.11828" lon="5.59769">
        <ele>1334</ele>
        <time>2011-06-26T15:08:03Z</time>
      </trkpt>
      <trkpt lat="45.11831" lon="5.59762">
        <ele>1334</ele>
        <time>2011-06-26T15:08:07Z</time>
      </trkpt>
      <trkpt lat="45.11835" lon="5.59759">
        <ele>1335</ele>
        <time>2011-06-26T15:08:11Z</time>
      </trkpt>
      <trkpt lat="45.11837" lon="5.59752">
        <ele>1335</ele>
        <time>2011-06-26T15:08:16Z</time>
      </trkpt>
      <trkpt lat="45.11839" lon="5.59746">
        <ele>1334</ele>
        <time>2011-06-26T15:08:21Z</time>
      </trkpt>
      <trkpt lat="45.11844" lon="5.59743">
        <ele>1339</ele>
        <time>2011-06-26T15:08:35Z</time>
      </trkpt>
      <trkpt lat="45.11844" lon="5.59743">
        <ele>1339</ele>
        <time>2011-06-26T15:08:35Z</time>
      </trkpt>
      <trkpt lat="45.11844" lon="5.59743">
        <ele>1339</ele>
        <time>2011-06-26T15:08:40Z</time>
      </trkpt>
      <trkpt lat="45.11846" lon="5.5975">
        <ele>1338</ele>
        <time>2011-06-26T15:08:43Z</time>
      </trkpt>
      <trkpt lat="45.11852" lon="5.59754">
        <ele>1338</ele>
        <time>2011-06-26T15:08:45Z</time>
      </trkpt>
      <trkpt lat="45.11856" lon="5.59759">
        <ele>1339</ele>
        <time>2011-06-26T15:08:47Z</time>
      </trkpt>
      <trkpt lat="45.11863" lon="5.59765">
        <ele>1339</ele>
        <time>2011-06-26T15:08:49Z</time>
      </trkpt>
      <trkpt lat="45.11869" lon="5.59772">
        <ele>1339</ele>
        <time>2011-06-26T15:08:51Z</time>
      </trkpt>
      <trkpt lat="45.11877" lon="5.59779">
        <ele>1338</ele>
        <time>2011-06-26T15:08:53Z</time>
      </trkpt>
      <trkpt lat="45.11882" lon="5.59783">
        <ele>1338</ele>
        <time>2011-06-26T15:08:54Z</time>
      </trkpt>
      <trkpt lat="45.11886" lon="5.59789">
        <ele>1338</ele>
        <time>2011-06-26T15:08:55Z</time>
      </trkpt>
      <trkpt lat="45.11891" lon="5.59795">
        <ele>1337</ele>
        <time>2011-06-26T15:08:56Z</time>
      </trkpt>
      <trkpt lat="45.11895" lon="5.598">
        <ele>1337</ele>
        <time>2011-06-26T15:08:57Z</time>
      </trkpt>
      <trkpt lat="45.119" lon="5.59805">
        <ele>1336</ele>
        <time>2011-06-26T15:09:00Z</time>
      </trkpt>
      <trkpt lat="45.11904" lon="5.5981">
        <ele>1336</ele>
        <time>2011-06-26T15:09:03Z</time>
      </trkpt>
      <trkpt lat="45.11908" lon="5.59811">
        <ele>1335</ele>
        <time>2011-06-26T15:09:07Z</time>
      </trkpt>
      <trkpt lat="45.11908" lon="5.59811">
        <ele>1335</ele>
        <time>2011-06-26T15:09:07Z</time>
      </trkpt>
      <trkpt lat="45.11908" lon="5.59811">
        <ele>1335</ele>
        <time>2011-06-26T15:09:08Z</time>
      </trkpt>
      <trkpt lat="45.11911" lon="5.59818">
        <ele>1334</ele>
        <time>2011-06-26T15:09:13Z</time>
      </trkpt>
      <trkpt lat="45.11918" lon="5.5982">
        <ele>1332</ele>
        <time>2011-06-26T15:09:41Z</time>
      </trkpt>
      <trkpt lat="45.11922" lon="5.59826">
        <ele>1332</ele>
        <time>2011-06-26T15:09:43Z</time>
      </trkpt>
      <trkpt lat="45.11928" lon="5.59835">
        <ele>1333</ele>
        <time>2011-06-26T15:09:45Z</time>
      </trkpt>
      <trkpt lat="45.11933" lon="5.59843">
        <ele>1333</ele>
        <time>2011-06-26T15:09:47Z</time>
      </trkpt>
      <trkpt lat="45.11938" lon="5.59852">
        <ele>1333</ele>
        <time>2011-06-26T15:09:49Z</time>
      </trkpt>
      <trkpt lat="45.11941" lon="5.59858">
        <ele>1333</ele>
        <time>2011-06-26T15:09:50Z</time>
      </trkpt>
      <trkpt lat="45.11944" lon="5.59862">
        <ele>1333</ele>
        <time>2011-06-26T15:09:51Z</time>
      </trkpt>
      <trkpt lat="45.11949" lon="5.59868">
        <ele>1333</ele>
        <time>2011-06-26T15:09:52Z</time>
      </trkpt>
      <trkpt lat="45.11956" lon="5.59878">
        <ele>1333</ele>
        <time>2011-06-26T15:09:54Z</time>
      </trkpt>
      <trkpt lat="45.11962" lon="5.59885">
        <ele>1331</ele>
        <time>2011-06-26T15:09:55Z</time>
      </trkpt>
      <trkpt lat="45.11967" lon="5.5989">
        <ele>1330</ele>
        <time>2011-06-26T15:09:56Z</time>
      </trkpt>
      <trkpt lat="45.11986" lon="5.59903">
        <ele>1324</ele>
        <time>2011-06-26T15:09:59Z</time>
      </trkpt>
      <trkpt lat="45.11993" lon="5.59905">
        <ele>1321</ele>
        <time>2011-06-26T15:10:00Z</time>
      </trkpt>
      <trkpt lat="45.11999" lon="5.59905">
        <ele>1319</ele>
        <time>2011-06-26T15:10:01Z</time>
      </trkpt>
      <trkpt lat="45.12006" lon="5.59902">
        <ele>1319</ele>
        <time>2011-06-26T15:10:02Z</time>
      </trkpt>
      <trkpt lat="45.12012" lon="5.59899">
        <ele>1318</ele>
        <time>2011-06-26T15:10:03Z</time>
      </trkpt>
      <trkpt lat="45.12017" lon="5.59898">
        <ele>1318</ele>
        <time>2011-06-26T15:10:04Z</time>
      </trkpt>
      <trkpt lat="45.12024" lon="5.59898">
        <ele>1318</ele>
        <time>2011-06-26T15:10:06Z</time>
      </trkpt>
      <trkpt lat="45.12039" lon="5.59897">
        <ele>1315</ele>
        <time>2011-06-26T15:10:10Z</time>
      </trkpt>
      <trkpt lat="45.12045" lon="5.59896">
        <ele>1315</ele>
        <time>2011-06-26T15:10:12Z</time>
      </trkpt>
      <trkpt lat="45.12052" lon="5.59896">
        <ele>1314</ele>
        <time>2011-06-26T15:10:15Z</time>
      </trkpt>
      <trkpt lat="45.12069" lon="5.59895">
        <ele>1313</ele>
        <time>2011-06-26T15:10:19Z</time>
      </trkpt>
      <trkpt lat="45.12074" lon="5.59892">
        <ele>1311</ele>
        <time>2011-06-26T15:10:20Z</time>
      </trkpt>
      <trkpt lat="45.1208" lon="5.59893">
        <ele>1310</ele>
        <time>2011-06-26T15:10:21Z</time>
      </trkpt>
      <trkpt lat="45.12088" lon="5.59897">
        <ele>1309</ele>
        <time>2011-06-26T15:10:23Z</time>
      </trkpt>
      <trkpt lat="45.12097" lon="5.59898">
        <ele>1309</ele>
        <time>2011-06-26T15:10:25Z</time>
      </trkpt>
      <trkpt lat="45.12105" lon="5.59898">
        <ele>1310</ele>
        <time>2011-06-26T15:10:27Z</time>
      </trkpt>
      <trkpt lat="45.12114" lon="5.59897">
        <ele>1309</ele>
        <time>2011-06-26T15:10:29Z</time>
      </trkpt>
      <trkpt lat="45.12122" lon="5.59897">
        <ele>1307</ele>
        <time>2011-06-26T15:10:32Z</time>
      </trkpt>
      <trkpt lat="45.12127" lon="5.59894">
        <ele>1307</ele>
        <time>2011-06-26T15:10:34Z</time>
      </trkpt>
      <trkpt lat="45.12134" lon="5.59895">
        <ele>1307</ele>
        <time>2011-06-26T15:10:37Z</time>
      </trkpt>
      <trkpt lat="45.12144" lon="5.59899">
        <ele>1306</ele>
        <time>2011-06-26T15:10:41Z</time>
      </trkpt>
      <trkpt lat="45.12149" lon="5.59901">
        <ele>1305</ele>
        <time>2011-06-26T15:10:43Z</time>
      </trkpt>
      <trkpt lat="45.12157" lon="5.59906">
        <ele>1305</ele>
        <time>2011-06-26T15:10:46Z</time>
      </trkpt>
      <trkpt lat="45.12163" lon="5.5991">
        <ele>1304</ele>
        <time>2011-06-26T15:10:48Z</time>
      </trkpt>
      <trkpt lat="45.12168" lon="5.59912">
        <ele>1304</ele>
        <time>2011-06-26T15:10:49Z</time>
      </trkpt>
      <trkpt lat="45.1218" lon="5.59918">
        <ele>1304</ele>
        <time>2011-06-26T15:10:52Z</time>
      </trkpt>
      <trkpt lat="45.12187" lon="5.59923">
        <ele>1303</ele>
        <time>2011-06-26T15:10:55Z</time>
      </trkpt>
      <trkpt lat="45.12198" lon="5.59931">
        <ele>1301</ele>
        <time>2011-06-26T15:10:58Z</time>
      </trkpt>
      <trkpt lat="45.12204" lon="5.59933">
        <ele>1302</ele>
        <time>2011-06-26T15:11:00Z</time>
      </trkpt>
      <trkpt lat="45.12213" lon="5.59936">
        <ele>1301</ele>
        <time>2011-06-26T15:11:03Z</time>
      </trkpt>
      <trkpt lat="45.12219" lon="5.59938">
        <ele>1300</ele>
        <time>2011-06-26T15:11:06Z</time>
      </trkpt>
      <trkpt lat="45.12234" lon="5.59945">
        <ele>1298</ele>
        <time>2011-06-26T15:11:11Z</time>
      </trkpt>
      <trkpt lat="45.12239" lon="5.5995">
        <ele>1297</ele>
        <time>2011-06-26T15:11:13Z</time>
      </trkpt>
      <trkpt lat="45.12244" lon="5.59953">
        <ele>1296</ele>
        <time>2011-06-26T15:11:15Z</time>
      </trkpt>
      <trkpt lat="45.12249" lon="5.59955">
        <ele>1295</ele>
        <time>2011-06-26T15:11:17Z</time>
      </trkpt>
      <trkpt lat="45.12269" lon="5.59961">
        <ele>1289</ele>
        <time>2011-06-26T15:11:20Z</time>
      </trkpt>
      <trkpt lat="45.12278" lon="5.59966">
        <ele>1287</ele>
        <time>2011-06-26T15:11:22Z</time>
      </trkpt>
      <trkpt lat="45.12285" lon="5.5997">
        <ele>1286</ele>
        <time>2011-06-26T15:11:24Z</time>
      </trkpt>
      <trkpt lat="45.12313" lon="5.59994">
        <ele>1281</ele>
        <time>2011-06-26T15:11:30Z</time>
      </trkpt>
      <trkpt lat="45.12319" lon="5.59995">
        <ele>1281</ele>
        <time>2011-06-26T15:11:31Z</time>
      </trkpt>
      <trkpt lat="45.12327" lon="5.59996">
        <ele>1281</ele>
        <time>2011-06-26T15:11:33Z</time>
      </trkpt>
      <trkpt lat="45.12334" lon="5.59997">
        <ele>1280</ele>
        <time>2011-06-26T15:11:35Z</time>
      </trkpt>
      <trkpt lat="45.12339" lon="5.59995">
        <ele>1280</ele>
        <time>2011-06-26T15:11:36Z</time>
      </trkpt>
      <trkpt lat="45.12347" lon="5.59994">
        <ele>1280</ele>
        <time>2011-06-26T15:11:38Z</time>
      </trkpt>
      <trkpt lat="45.12356" lon="5.59989">
        <ele>1279</ele>
        <time>2011-06-26T15:11:41Z</time>
      </trkpt>
      <trkpt lat="45.12378" lon="5.59972">
        <ele>1267</ele>
        <time>2011-06-26T15:11:46Z</time>
      </trkpt>
      <trkpt lat="45.12388" lon="5.59962">
        <ele>1263</ele>
        <time>2011-06-26T15:11:48Z</time>
      </trkpt>
      <trkpt lat="45.12393" lon="5.59953">
        <ele>1261</ele>
        <time>2011-06-26T15:11:50Z</time>
      </trkpt>
      <trkpt lat="45.12403" lon="5.59925">
        <ele>1251</ele>
        <time>2011-06-26T15:11:54Z</time>
      </trkpt>
      <trkpt lat="45.12404" lon="5.59918">
        <ele>1248</ele>
        <time>2011-06-26T15:11:55Z</time>
      </trkpt>
      <trkpt lat="45.12404" lon="5.59896">
        <ele>1236</ele>
        <time>2011-06-26T15:11:58Z</time>
      </trkpt>
      <trkpt lat="45.12405" lon="5.59889">
        <ele>1233</ele>
        <time>2011-06-26T15:11:59Z</time>
      </trkpt>
      <trkpt lat="45.12407" lon="5.59876">
        <ele>1227</ele>
        <time>2011-06-26T15:12:01Z</time>
      </trkpt>
      <trkpt lat="45.12408" lon="5.59864">
        <ele>1222</ele>
        <time>2011-06-26T15:12:03Z</time>
      </trkpt>
      <trkpt lat="45.1241" lon="5.59854">
        <ele>1217</ele>
        <time>2011-06-26T15:12:05Z</time>
      </trkpt>
      <trkpt lat="45.12407" lon="5.59847">
        <ele>1214</ele>
        <time>2011-06-26T15:12:07Z</time>
      </trkpt>
      <trkpt lat="45.12404" lon="5.59833">
        <ele>1208</ele>
        <time>2011-06-26T15:12:10Z</time>
      </trkpt>
      <trkpt lat="45.12402" lon="5.59824">
        <ele>1207</ele>
        <time>2011-06-26T15:12:12Z</time>
      </trkpt>
      <trkpt lat="45.12401" lon="5.59816">
        <ele>1206</ele>
        <time>2011-06-26T15:12:14Z</time>
      </trkpt>
      <trkpt lat="45.12401" lon="5.59806">
        <ele>1204</ele>
        <time>2011-06-26T15:12:16Z</time>
      </trkpt>
      <trkpt lat="45.12404" lon="5.59797">
        <ele>1202</ele>
        <time>2011-06-26T15:12:18Z</time>
      </trkpt>
      <trkpt lat="45.12402" lon="5.59789">
        <ele>1201</ele>
        <time>2011-06-26T15:12:20Z</time>
      </trkpt>
      <trkpt lat="45.12407" lon="5.59777">
        <ele>1199</ele>
        <time>2011-06-26T15:12:22Z</time>
      </trkpt>
      <trkpt lat="45.1241" lon="5.59772">
        <ele>1198</ele>
        <time>2011-06-26T15:12:23Z</time>
      </trkpt>
      <trkpt lat="45.12414" lon="5.59765">
        <ele>1197</ele>
        <time>2011-06-26T15:12:24Z</time>
      </trkpt>
      <trkpt lat="45.12418" lon="5.59757">
        <ele>1196</ele>
        <time>2011-06-26T15:12:25Z</time>
      </trkpt>
      <trkpt lat="45.1242" lon="5.59748">
        <ele>1195</ele>
        <time>2011-06-26T15:12:26Z</time>
      </trkpt>
      <trkpt lat="45.12422" lon="5.59734">
        <ele>1195</ele>
        <time>2011-06-26T15:12:28Z</time>
      </trkpt>
      <trkpt lat="45.12422" lon="5.59721">
        <ele>1195</ele>
        <time>2011-06-26T15:12:30Z</time>
      </trkpt>
      <trkpt lat="45.12426" lon="5.59712">
        <ele>1195</ele>
        <time>2011-06-26T15:12:31Z</time>
      </trkpt>
      <trkpt lat="45.12428" lon="5.59704">
        <ele>1195</ele>
        <time>2011-06-26T15:12:32Z</time>
      </trkpt>
      <trkpt lat="45.12429" lon="5.59696">
        <ele>1195</ele>
        <time>2011-06-26T15:12:33Z</time>
      </trkpt>
      <trkpt lat="45.12436" lon="5.59687">
        <ele>1193</ele>
        <time>2011-06-26T15:12:35Z</time>
      </trkpt>
      <trkpt lat="45.12442" lon="5.59682">
        <ele>1192</ele>
        <time>2011-06-26T15:12:36Z</time>
      </trkpt>
      <trkpt lat="45.12444" lon="5.59679">
        <ele>1173</ele>
        <time>2011-06-26T15:12:44Z</time>
      </trkpt>
      <trkpt lat="45.12451" lon="5.59677">
        <ele>1172</ele>
        <time>2011-06-26T15:12:45Z</time>
      </trkpt>
      <trkpt lat="45.12456" lon="5.59679">
        <ele>1171</ele>
        <time>2011-06-26T15:12:46Z</time>
      </trkpt>
      <trkpt lat="45.12462" lon="5.59683">
        <ele>1170</ele>
        <time>2011-06-26T15:12:47Z</time>
      </trkpt>
      <trkpt lat="45.12466" lon="5.59687">
        <ele>1167</ele>
        <time>2011-06-26T15:12:49Z</time>
      </trkpt>
      <trkpt lat="45.12475" lon="5.59692">
        <ele>1159</ele>
        <time>2011-06-26T15:12:52Z</time>
      </trkpt>
      <trkpt lat="45.12477" lon="5.59684">
        <ele>1155</ele>
        <time>2011-06-26T15:12:55Z</time>
      </trkpt>
      <trkpt lat="45.12474" lon="5.59679">
        <ele>1153</ele>
        <time>2011-06-26T15:12:57Z</time>
      </trkpt>
      <trkpt lat="45.12468" lon="5.59673">
        <ele>1150</ele>
        <time>2011-06-26T15:13:00Z</time>
      </trkpt>
      <trkpt lat="45.12463" lon="5.59668">
        <ele>1150</ele>
        <time>2011-06-26T15:13:04Z</time>
      </trkpt>
      <trkpt lat="45.12454" lon="5.59666">
        <ele>1149</ele>
        <time>2011-06-26T15:13:07Z</time>
      </trkpt>
      <trkpt lat="45.12449" lon="5.59667">
        <ele>1149</ele>
        <time>2011-06-26T15:13:09Z</time>
      </trkpt>
      <trkpt lat="45.12439" lon="5.59662">
        <ele>1146</ele>
        <time>2011-06-26T15:13:12Z</time>
      </trkpt>
      <trkpt lat="45.12435" lon="5.59658">
        <ele>1145</ele>
        <time>2011-06-26T15:13:13Z</time>
      </trkpt>
      <trkpt lat="45.1243" lon="5.59651">
        <ele>1144</ele>
        <time>2011-06-26T15:13:16Z</time>
      </trkpt>
      <trkpt lat="45.12427" lon="5.59647">
        <ele>1141</ele>
        <time>2011-06-26T15:13:19Z</time>
      </trkpt>
      <trkpt lat="45.12427" lon="5.5964">
        <ele>1139</ele>
        <time>2011-06-26T15:13:21Z</time>
      </trkpt>
      <trkpt lat="45.12432" lon="5.59634">
        <ele>1138</ele>
        <time>2011-06-26T15:13:24Z</time>
      </trkpt>
      <trkpt lat="45.12437" lon="5.59629">
        <ele>1138</ele>
        <time>2011-06-26T15:13:26Z</time>
      </trkpt>
      <trkpt lat="45.12443" lon="5.59624">
        <ele>1137</ele>
        <time>2011-06-26T15:13:28Z</time>
      </trkpt>
      <trkpt lat="45.12448" lon="5.59621">
        <ele>1137</ele>
        <time>2011-06-26T15:13:30Z</time>
      </trkpt>
      <trkpt lat="45.12454" lon="5.59617">
        <ele>1137</ele>
        <time>2011-06-26T15:13:32Z</time>
      </trkpt>
      <trkpt lat="45.12459" lon="5.59614">
        <ele>1137</ele>
        <time>2011-06-26T15:13:34Z</time>
      </trkpt>
      <trkpt lat="45.12467" lon="5.5961">
        <ele>1137</ele>
        <time>2011-06-26T15:13:36Z</time>
      </trkpt>
      <trkpt lat="45.12474" lon="5.59609">
        <ele>1137</ele>
        <time>2011-06-26T15:13:38Z</time>
      </trkpt>
      <trkpt lat="45.12488" lon="5.59617">
        <ele>1136</ele>
        <time>2011-06-26T15:13:41Z</time>
      </trkpt>
      <trkpt lat="45.12501" lon="5.59611">
        <ele>1132</ele>
        <time>2011-06-26T15:13:42Z</time>
      </trkpt>
      <trkpt lat="45.12506" lon="5.59629">
        <ele>1131</ele>
        <time>2011-06-26T15:13:43Z</time>
      </trkpt>
      <trkpt lat="45.12522" lon="5.59645">
        <ele>1130</ele>
        <time>2011-06-26T15:13:44Z</time>
      </trkpt>
      <trkpt lat="45.12529" lon="5.5966">
        <ele>1130</ele>
        <time>2011-06-26T15:13:45Z</time>
      </trkpt>
      <trkpt lat="45.1254" lon="5.59667">
        <ele>1128</ele>
        <time>2011-06-26T15:13:46Z</time>
      </trkpt>
      <trkpt lat="45.12553" lon="5.59677">
        <ele>1127</ele>
        <time>2011-06-26T15:13:47Z</time>
      </trkpt>
      <trkpt lat="45.12581" lon="5.59684">
        <ele>1124</ele>
        <time>2011-06-26T15:13:50Z</time>
      </trkpt>
      <trkpt lat="45.12588" lon="5.59682">
        <ele>1124</ele>
        <time>2011-06-26T15:13:51Z</time>
      </trkpt>
      <trkpt lat="45.12592" lon="5.59679">
        <ele>1122</ele>
        <time>2011-06-26T15:13:52Z</time>
      </trkpt>
      <trkpt lat="45.12598" lon="5.59676">
        <ele>1122</ele>
        <time>2011-06-26T15:13:53Z</time>
      </trkpt>
      <trkpt lat="45.12603" lon="5.59672">
        <ele>1121</ele>
        <time>2011-06-26T15:13:54Z</time>
      </trkpt>
      <trkpt lat="45.12607" lon="5.59665">
        <ele>1120</ele>
        <time>2011-06-26T15:13:55Z</time>
      </trkpt>
      <trkpt lat="45.12609" lon="5.59658">
        <ele>1120</ele>
        <time>2011-06-26T15:13:56Z</time>
      </trkpt>
      <trkpt lat="45.12609" lon="5.59644">
        <ele>1120</ele>
        <time>2011-06-26T15:13:58Z</time>
      </trkpt>
      <trkpt lat="45.12613" lon="5.59641">
        <ele>1120</ele>
        <time>2011-06-26T15:13:59Z</time>
      </trkpt>
      <trkpt lat="45.12619" lon="5.59635">
        <ele>1120</ele>
        <time>2011-06-26T15:14:01Z</time>
      </trkpt>
      <trkpt lat="45.12629" lon="5.59627">
        <ele>1118</ele>
        <time>2011-06-26T15:14:03Z</time>
      </trkpt>
      <trkpt lat="45.12634" lon="5.59624">
        <ele>1117</ele>
        <time>2011-06-26T15:14:04Z</time>
      </trkpt>
      <trkpt lat="45.12638" lon="5.59618">
        <ele>1116</ele>
        <time>2011-06-26T15:14:05Z</time>
      </trkpt>
      <trkpt lat="45.12636" lon="5.5961">
        <ele>1116</ele>
        <time>2011-06-26T15:14:06Z</time>
      </trkpt>
      <trkpt lat="45.1264" lon="5.59603">
        <ele>1114</ele>
        <time>2011-06-26T15:14:08Z</time>
      </trkpt>
      <trkpt lat="45.12641" lon="5.59596">
        <ele>1111</ele>
        <time>2011-06-26T15:14:10Z</time>
      </trkpt>
      <trkpt lat="45.12644" lon="5.59589">
        <ele>1107</ele>
        <time>2011-06-26T15:14:12Z</time>
      </trkpt>
      <trkpt lat="45.1264" lon="5.59585">
        <ele>1094</ele>
        <time>2011-06-26T15:14:20Z</time>
      </trkpt>
    </trkseg>
  </trk>
</gpx>